GIA1201 OEMA-WAAA
Flight info
| Callsign | GIA1201 |
|---|---|
| Flight time | 10h 28m |
| Altitude | 35000 |
| Route | MEDR1J MEDRO M872 BDB Y214 RAPMA ULONO DAPOL L692 GISKA N569 LOTAV M300 RULKA L896 SULEN P570 NIXUL BINAK JATAM GUKNO TANUR GURNI |
| Aircraft | B77W/H-SDE1E2E3FGHIJ2J3J4J5M1RWXY/LB1D1 |
Departure
| Time | 2026-04-30 04:01 |
|---|---|
| Airport | Prince Mohammad Bin Abdulaziz Airport (OEMA) |
Arrival
| Time | 2026-04-30 14:30 |
|---|---|
| Airport | Sultan Hasanuddin International Airport (WAAA) |
| Time | Latitude | Longitude | Altitude | Speed | Heading |
|---|---|---|---|---|---|
| 2026-04-30 03:38 | 24.55759 | 39.71210 | 2165 ft | 0 kts | 79° |
| 2026-04-30 03:50 | 24.55759 | 39.71209 | 2165 ft | 1 kts | 79° |
| 2026-04-30 03:51 | 24.55757 | 39.71199 | 2165 ft | 3 kts | 82° |
| 2026-04-30 03:51 | 24.55756 | 39.71171 | 2165 ft | 3 kts | 99° |
| 2026-04-30 03:51 | 24.55758 | 39.71158 | 2165 ft | 3 kts | 109° |
| 2026-04-30 03:51 | 24.55769 | 39.71133 | 2165 ft | 3 kts | 131° |
| 2026-04-30 03:52 | 24.55776 | 39.71124 | 2165 ft | 3 kts | 143° |
| 2026-04-30 03:52 | 24.55793 | 39.71113 | 2165 ft | 3 kts | 163° |
| 2026-04-30 03:52 | 24.55801 | 39.71110 | 2165 ft | 0 kts | 169° |
| 2026-04-30 03:55 | 24.55775 | 39.71116 | 2165 ft | 8 kts | 169° |
| 2026-04-30 03:56 | 24.55703 | 39.71131 | 2165 ft | 14 kts | 169° |
| 2026-04-30 03:56 | 24.55585 | 39.71157 | 2165 ft | 20 kts | 169° |
| 2026-04-30 03:56 | 24.55427 | 39.71190 | 2165 ft | 26 kts | 169° |
| 2026-04-30 03:56 | 24.55302 | 39.71217 | 2165 ft | 10 kts | 169° |
| 2026-04-30 03:57 | 24.55254 | 39.71176 | 2165 ft | 12 kts | 253° |
| 2026-04-30 03:57 | 24.55235 | 39.71071 | 2165 ft | 9 kts | 260° |
| 2026-04-30 03:57 | 24.55186 | 39.71045 | 2165 ft | 12 kts | 176° |
| 2026-04-30 03:57 | 24.55084 | 39.71064 | 2165 ft | 18 kts | 169° |
| 2026-04-30 03:58 | 24.54939 | 39.71095 | 2165 ft | 24 kts | 169° |
| 2026-04-30 03:58 | 24.54748 | 39.71135 | 2165 ft | 30 kts | 169° |
| 2026-04-30 03:58 | 24.54559 | 39.71175 | 2165 ft | 27 kts | 169° |
| 2026-04-30 03:58 | 24.54367 | 39.71215 | 2165 ft | 29 kts | 169° |
| 2026-04-30 03:59 | 24.54176 | 39.71255 | 2165 ft | 23 kts | 169° |
| 2026-04-30 03:59 | 24.54032 | 39.71285 | 2165 ft | 22 kts | 169° |
| 2026-04-30 03:59 | 24.53911 | 39.71312 | 2165 ft | 7 kts | 168° |
| 2026-04-30 03:59 | 24.53866 | 39.71286 | 2165 ft | 10 kts | 242° |
| 2026-04-30 04:00 | 24.53848 | 39.71197 | 2165 ft | 13 kts | 260° |
| 2026-04-30 04:00 | 24.53875 | 39.71139 | 2165 ft | 11 kts | 339° |
| 2026-04-30 04:00 | 24.53902 | 39.71131 | 2165 ft | 2 kts | 348° |
| 2026-04-30 04:00 | 24.54015 | 39.71107 | 2165 ft | 39 kts | 349° |
| 2026-04-30 04:01 | 24.54529 | 39.70998 | 2165 ft | 112 kts | 349° |
| 2026-04-30 04:01 | 24.55525 | 39.70786 | 2165 ft | 176 kts | 349° |
| 2026-04-30 04:01 | 24.56862 | 39.70500 | 2378 ft | 206 kts | 350° |
| 2026-04-30 04:01 | 24.57800 | 39.70299 | 2868 ft | 206 kts | 350° |
| 2026-04-30 04:02 | 24.59252 | 39.70028 | 3771 ft | 206 kts | 348° |
| 2026-04-30 04:02 | 24.60699 | 39.69696 | 4281 ft | 220 kts | 346° |
| 2026-04-30 04:02 | 24.62291 | 39.69325 | 4542 ft | 245 kts | 346° |
| 2026-04-30 04:02 | 24.64040 | 39.68945 | 4935 ft | 266 kts | 347° |
| 2026-04-30 04:03 | 24.65908 | 39.68558 | 5503 ft | 279 kts | 347° |
| 2026-04-30 04:03 | 24.67861 | 39.68157 | 6349 ft | 283 kts | 347° |
| 2026-04-30 04:03 | 24.69807 | 39.67750 | 7222 ft | 285 kts | 346° |
| 2026-04-30 04:03 | 24.71759 | 39.67333 | 8068 ft | 287 kts | 346° |
| 2026-04-30 04:04 | 24.73733 | 39.66911 | 8858 ft | 290 kts | 346° |
| 2026-04-30 04:04 | 24.75727 | 39.66486 | 9640 ft | 293 kts | 345° |
| 2026-04-30 04:04 | 24.77778 | 39.66048 | 10381 ft | 299 kts | 345° |
| 2026-04-30 04:04 | 24.79871 | 39.65617 | 10853 ft | 315 kts | 347° |
| 2026-04-30 04:05 | 24.82153 | 39.65616 | 11110 ft | 343 kts | 7° |
| 2026-04-30 04:05 | 24.84450 | 39.66593 | 11450 ft | 370 kts | 28° |
| 2026-04-30 04:05 | 24.86398 | 39.68456 | 11880 ft | 392 kts | 47° |
| 2026-04-30 04:05 | 24.87827 | 39.71167 | 12413 ft | 409 kts | 67° |
| 2026-04-30 04:06 | 24.88432 | 39.74268 | 12963 ft | 421 kts | 86° |
| 2026-04-30 04:06 | 24.88161 | 39.77503 | 13575 ft | 427 kts | 104° |
| 2026-04-30 04:06 | 24.87112 | 39.80567 | 14185 ft | 431 kts | 119° |
| 2026-04-30 04:06 | 24.85549 | 39.83416 | 14751 ft | 436 kts | 123° |
| 2026-04-30 04:07 | 24.84035 | 39.86340 | 15426 ft | 441 kts | 121° |
| 2026-04-30 04:07 | 24.82765 | 39.88919 | 15977 ft | 446 kts | 120° |
| 2026-04-30 04:07 | 24.81055 | 39.92397 | 16688 ft | 452 kts | 121° |
| 2026-04-30 04:08 | 24.77919 | 39.98651 | 17895 ft | 461 kts | 121° |
| 2026-04-30 04:08 | 24.76264 | 40.01919 | 18513 ft | 466 kts | 121° |
| 2026-04-30 04:08 | 24.74674 | 40.05051 | 19078 ft | 470 kts | 122° |
| 2026-04-30 04:08 | 24.73072 | 40.08199 | 19640 ft | 473 kts | 122° |
| 2026-04-30 04:09 | 24.71453 | 40.11381 | 20208 ft | 477 kts | 122° |
| 2026-04-30 04:09 | 24.69827 | 40.14569 | 20721 ft | 481 kts | 122° |
| 2026-04-30 04:09 | 24.68083 | 40.17991 | 21438 ft | 480 kts | 123° |
| 2026-04-30 04:09 | 24.66996 | 40.20118 | 21754 ft | 483 kts | 123° |
| 2026-04-30 04:10 | 24.65220 | 40.23592 | 22129 ft | 490 kts | 123° |
| 2026-04-30 04:10 | 24.63544 | 40.26870 | 22621 ft | 494 kts | 123° |
| 2026-04-30 04:10 | 24.61833 | 40.30214 | 23094 ft | 497 kts | 123° |
| 2026-04-30 04:10 | 24.60141 | 40.33548 | 23537 ft | 500 kts | 123° |
| 2026-04-30 04:11 | 24.58438 | 40.36888 | 24072 ft | 502 kts | 124° |
| 2026-04-30 04:11 | 24.56652 | 40.40368 | 24514 ft | 505 kts | 124° |
| 2026-04-30 04:11 | 24.54846 | 40.43880 | 24921 ft | 509 kts | 124° |
| 2026-04-30 04:11 | 24.53093 | 40.47285 | 25226 ft | 514 kts | 124° |
| 2026-04-30 04:12 | 24.51324 | 40.50720 | 25608 ft | 518 kts | 124° |
| 2026-04-30 04:12 | 24.49542 | 40.54177 | 25977 ft | 522 kts | 124° |
| 2026-04-30 04:12 | 24.47933 | 40.57550 | 26282 ft | 528 kts | 119° |
| 2026-04-30 04:12 | 24.46506 | 40.61529 | 26637 ft | 537 kts | 112° |
| 2026-04-30 04:13 | 24.45553 | 40.65513 | 27014 ft | 543 kts | 106° |
| 2026-04-30 04:13 | 24.44870 | 40.69620 | 27326 ft | 549 kts | 101° |
| 2026-04-30 04:13 | 24.44412 | 40.73790 | 27638 ft | 554 kts | 98° |
| 2026-04-30 04:13 | 24.44079 | 40.78025 | 27951 ft | 558 kts | 97° |
| 2026-04-30 04:14 | 24.43710 | 40.82340 | 28269 ft | 561 kts | 98° |
| 2026-04-30 04:14 | 24.43287 | 40.86611 | 28566 ft | 564 kts | 99° |
| 2026-04-30 04:14 | 24.42830 | 40.90891 | 28876 ft | 567 kts | 99° |
| 2026-04-30 04:14 | 24.42374 | 40.95218 | 29123 ft | 571 kts | 99° |
| 2026-04-30 04:15 | 24.41901 | 40.99727 | 29427 ft | 573 kts | 99° |
| 2026-04-30 04:15 | 24.41447 | 41.04079 | 29894 ft | 571 kts | 99° |
| 2026-04-30 04:15 | 24.40991 | 41.08415 | 30319 ft | 571 kts | 99° |
| 2026-04-30 04:15 | 24.40542 | 41.12691 | 30665 ft | 572 kts | 99° |
| 2026-04-30 04:16 | 24.40084 | 41.17032 | 31075 ft | 572 kts | 100° |
| 2026-04-30 04:16 | 24.39772 | 41.19964 | 31319 ft | 572 kts | 100° |
| 2026-04-30 04:16 | 24.39144 | 41.25868 | 32008 ft | 567 kts | 100° |
| 2026-04-30 04:16 | 24.38690 | 41.30127 | 32823 ft | 557 kts | 100° |
| 2026-04-30 04:17 | 24.38391 | 41.32919 | 33224 ft | 554 kts | 100° |
| 2026-04-30 04:17 | 24.37792 | 41.38508 | 33743 ft | 553 kts | 100° |
| 2026-04-30 04:17 | 24.37495 | 41.41281 | 33950 ft | 552 kts | 100° |
| 2026-04-30 04:17 | 24.37049 | 41.45466 | 34422 ft | 549 kts | 100° |
| 2026-04-30 04:18 | 24.36632 | 41.49609 | 34854 ft | 546 kts | 100° |
| 2026-04-30 04:18 | 24.36058 | 41.55173 | 35003 ft | 549 kts | 100° |
| 2026-04-30 04:18 | 24.35761 | 41.57941 | 34993 ft | 552 kts | 100° |
| 2026-04-30 04:19 | 24.34842 | 41.66382 | 34994 ft | 556 kts | 100° |
| 2026-04-30 04:19 | 24.33921 | 41.74790 | 34994 ft | 555 kts | 100° |
| 2026-04-30 04:20 | 24.32863 | 41.83286 | 34994 ft | 552 kts | 105° |
| 2026-04-30 04:20 | 24.30988 | 41.91439 | 34995 ft | 550 kts | 111° |
| 2026-04-30 04:21 | 24.28706 | 41.99422 | 34994 ft | 548 kts | 111° |
| 2026-04-30 04:21 | 24.26498 | 42.07435 | 34994 ft | 548 kts | 111° |
| 2026-04-30 04:22 | 24.24357 | 42.15461 | 34994 ft | 549 kts | 110° |
| 2026-04-30 04:22 | 24.22129 | 42.23930 | 34994 ft | 550 kts | 110° |
| 2026-04-30 04:23 | 24.20016 | 42.31949 | 34994 ft | 551 kts | 110° |
| 2026-04-30 04:23 | 24.17848 | 42.40114 | 34994 ft | 550 kts | 110° |
| 2026-04-30 04:24 | 24.15646 | 42.48374 | 34994 ft | 550 kts | 110° |
| 2026-04-30 04:24 | 24.13470 | 42.56541 | 34994 ft | 550 kts | 110° |
| 2026-04-30 04:25 | 24.11330 | 42.64593 | 34994 ft | 550 kts | 110° |
| 2026-04-30 04:25 | 24.09415 | 42.71701 | 34994 ft | 550 kts | 110° |
| 2026-04-30 04:26 | 24.07242 | 42.79749 | 34994 ft | 551 kts | 110° |
| 2026-04-30 04:26 | 24.05068 | 42.87795 | 34994 ft | 551 kts | 110° |
| 2026-04-30 04:27 | 24.02854 | 42.95965 | 34994 ft | 551 kts | 110° |
| 2026-04-30 04:27 | 24.00665 | 43.04002 | 34994 ft | 551 kts | 110° |
| 2026-04-30 04:28 | 23.98457 | 43.12095 | 34994 ft | 551 kts | 110° |
| 2026-04-30 04:28 | 23.96274 | 43.20080 | 34994 ft | 551 kts | 110° |
| 2026-04-30 04:29 | 23.94087 | 43.28124 | 34994 ft | 551 kts | 110° |
| 2026-04-30 04:29 | 23.91895 | 43.36218 | 34994 ft | 551 kts | 110° |
| 2026-04-30 04:30 | 23.89700 | 43.44247 | 34995 ft | 550 kts | 110° |
| 2026-04-30 04:30 | 23.87499 | 43.52260 | 34994 ft | 549 kts | 110° |
| 2026-04-30 04:31 | 23.85314 | 43.60272 | 34995 ft | 552 kts | 110° |
| 2026-04-30 04:31 | 23.83089 | 43.68337 | 34995 ft | 550 kts | 110° |
| 2026-04-30 04:32 | 23.80868 | 43.76339 | 34993 ft | 550 kts | 110° |
| 2026-04-30 04:32 | 23.78657 | 43.84297 | 34997 ft | 550 kts | 110° |
| 2026-04-30 04:33 | 23.77048 | 43.92574 | 34995 ft | 551 kts | 100° |
| 2026-04-30 04:33 | 23.76379 | 44.00948 | 34995 ft | 556 kts | 96° |
| 2026-04-30 04:34 | 23.75825 | 44.09508 | 34999 ft | 556 kts | 97° |
| 2026-04-30 04:34 | 23.75200 | 44.17907 | 34995 ft | 552 kts | 98° |
| 2026-04-30 04:35 | 23.74560 | 44.26263 | 34995 ft | 553 kts | 97° |
| 2026-04-30 04:35 | 23.74057 | 44.33283 | 34996 ft | 551 kts | 98° |
| 2026-04-30 04:36 | 23.73430 | 44.41568 | 34996 ft | 545 kts | 99° |
| 2026-04-30 04:36 | 23.72789 | 44.49880 | 34996 ft | 544 kts | 99° |
| 2026-04-30 04:37 | 23.72152 | 44.58329 | 34996 ft | 541 kts | 99° |
| 2026-04-30 04:37 | 23.71511 | 44.66515 | 34997 ft | 541 kts | 99° |
| 2026-04-30 04:38 | 23.70857 | 44.74714 | 34997 ft | 541 kts | 99° |
| 2026-04-30 04:38 | 23.70201 | 44.82917 | 35001 ft | 543 kts | 99° |
| 2026-04-30 04:39 | 23.69530 | 44.91408 | 35000 ft | 545 kts | 99° |
| 2026-04-30 04:39 | 23.68882 | 44.99565 | 35001 ft | 544 kts | 99° |
| 2026-04-30 04:40 | 23.68212 | 45.07740 | 35006 ft | 544 kts | 99° |
| 2026-04-30 04:40 | 23.67526 | 45.16087 | 35006 ft | 545 kts | 99° |
| 2026-04-30 04:41 | 23.66846 | 45.24351 | 35007 ft | 545 kts | 99° |
| 2026-04-30 04:41 | 23.66180 | 45.32599 | 35010 ft | 545 kts | 98° |
| 2026-04-30 04:42 | 23.65505 | 45.40779 | 35009 ft | 545 kts | 99° |
| 2026-04-30 04:42 | 23.64813 | 45.48954 | 35011 ft | 544 kts | 99° |
| 2026-04-30 04:43 | 23.64099 | 45.57363 | 35012 ft | 544 kts | 99° |
| 2026-04-30 04:43 | 23.63400 | 45.65584 | 35011 ft | 544 kts | 99° |
| 2026-04-30 04:44 | 23.62691 | 45.73805 | 35013 ft | 544 kts | 99° |
| 2026-04-30 04:44 | 23.61976 | 45.82032 | 35014 ft | 544 kts | 99° |
| 2026-04-30 04:45 | 23.61257 | 45.90253 | 35014 ft | 544 kts | 99° |
| 2026-04-30 04:45 | 23.60539 | 45.98416 | 35016 ft | 544 kts | 99° |
| 2026-04-30 04:46 | 23.59834 | 46.06712 | 35016 ft | 544 kts | 99° |
| 2026-04-30 04:46 | 23.59128 | 46.14860 | 35017 ft | 544 kts | 99° |
| 2026-04-30 04:47 | 23.58419 | 46.23121 | 35018 ft | 544 kts | 99° |
| 2026-04-30 04:47 | 23.57771 | 46.30393 | 35018 ft | 544 kts | 99° |
| 2026-04-30 04:48 | 23.57022 | 46.38659 | 35019 ft | 543 kts | 99° |
| 2026-04-30 04:48 | 23.56276 | 46.46870 | 35018 ft | 543 kts | 99° |
| 2026-04-30 04:49 | 23.55520 | 46.55190 | 35020 ft | 543 kts | 99° |
| 2026-04-30 04:49 | 23.54760 | 46.63438 | 35019 ft | 543 kts | 99° |
| 2026-04-30 04:50 | 23.53998 | 46.71645 | 35019 ft | 543 kts | 99° |
| 2026-04-30 04:50 | 23.53211 | 46.80066 | 35020 ft | 543 kts | 99° |
| 2026-04-30 04:51 | 23.52442 | 46.88266 | 35020 ft | 543 kts | 99° |
| 2026-04-30 04:51 | 23.51674 | 46.96737 | 35018 ft | 542 kts | 99° |
| 2026-04-30 04:52 | 23.51026 | 47.03743 | 35018 ft | 541 kts | 99° |
| 2026-04-30 04:52 | 23.50259 | 47.11907 | 35018 ft | 541 kts | 99° |
| 2026-04-30 04:53 | 23.49498 | 47.20074 | 35012 ft | 540 kts | 99° |
| 2026-04-30 04:53 | 23.48725 | 47.28257 | 35013 ft | 539 kts | 100° |
| 2026-04-30 04:54 | 23.47939 | 47.36368 | 35010 ft | 539 kts | 100° |
| 2026-04-30 04:54 | 23.47158 | 47.44384 | 35010 ft | 539 kts | 100° |
| 2026-04-30 04:55 | 23.46314 | 47.53063 | 35011 ft | 539 kts | 100° |
| 2026-04-30 04:55 | 23.45548 | 47.60857 | 35008 ft | 539 kts | 100° |
| 2026-04-30 04:56 | 23.44710 | 47.69313 | 35007 ft | 539 kts | 100° |
| 2026-04-30 04:56 | 23.43906 | 47.77385 | 35008 ft | 539 kts | 100° |
| 2026-04-30 04:57 | 23.43084 | 47.85606 | 35005 ft | 539 kts | 100° |
| 2026-04-30 04:57 | 23.42289 | 47.93742 | 35004 ft | 539 kts | 100° |
| 2026-04-30 04:58 | 23.41494 | 48.01925 | 35004 ft | 539 kts | 99° |
| 2026-04-30 04:58 | 23.40688 | 48.10049 | 35000 ft | 539 kts | 100° |
| 2026-04-30 04:59 | 23.39862 | 48.18137 | 35000 ft | 539 kts | 100° |
| 2026-04-30 04:59 | 23.39024 | 48.26297 | 34999 ft | 539 kts | 100° |
| 2026-04-30 05:00 | 23.38170 | 48.34420 | 34996 ft | 539 kts | 102° |
| 2026-04-30 05:00 | 23.36756 | 48.42474 | 34994 ft | 537 kts | 107° |
| 2026-04-30 05:01 | 23.34987 | 48.50371 | 34993 ft | 535 kts | 108° |
| 2026-04-30 05:01 | 23.33245 | 48.58310 | 34990 ft | 535 kts | 107° |
| 2026-04-30 05:02 | 23.31841 | 48.64917 | 34990 ft | 535 kts | 107° |
| 2026-04-30 05:02 | 23.30184 | 48.72818 | 34989 ft | 536 kts | 107° |
| 2026-04-30 05:03 | 23.28538 | 48.80850 | 34987 ft | 536 kts | 107° |
| 2026-04-30 05:03 | 23.26884 | 48.88822 | 34987 ft | 536 kts | 107° |
| 2026-04-30 05:04 | 23.25236 | 48.96715 | 34987 ft | 536 kts | 107° |
| 2026-04-30 05:04 | 23.23544 | 49.04786 | 34984 ft | 536 kts | 107° |
| 2026-04-30 05:05 | 23.21881 | 49.12693 | 34982 ft | 536 kts | 107° |
| 2026-04-30 05:05 | 23.20197 | 49.20678 | 34983 ft | 536 kts | 107° |
| 2026-04-30 05:06 | 23.17661 | 49.32663 | 34936 ft | 535 kts | 107° |
| 2026-04-30 05:06 | 23.15985 | 49.40558 | 34935 ft | 535 kts | 107° |
| 2026-04-30 05:07 | 23.14295 | 49.48498 | 34927 ft | 536 kts | 107° |
| 2026-04-30 05:07 | 23.12608 | 49.56405 | 34925 ft | 536 kts | 107° |
| 2026-04-30 05:08 | 23.10905 | 49.64362 | 34930 ft | 536 kts | 107° |
| 2026-04-30 05:08 | 23.09213 | 49.72252 | 34911 ft | 536 kts | 107° |
| 2026-04-30 05:09 | 23.07504 | 49.80197 | 34899 ft | 536 kts | 107° |
| 2026-04-30 05:09 | 23.05803 | 49.88086 | 34888 ft | 536 kts | 107° |
| 2026-04-30 05:10 | 23.04099 | 49.95969 | 34881 ft | 537 kts | 107° |
| 2026-04-30 05:10 | 23.02375 | 50.03927 | 34878 ft | 537 kts | 107° |
| 2026-04-30 05:11 | 23.00666 | 50.11793 | 34878 ft | 537 kts | 107° |
| 2026-04-30 05:11 | 22.98934 | 50.19745 | 34877 ft | 537 kts | 107° |
| 2026-04-30 05:12 | 22.97212 | 50.27629 | 34877 ft | 536 kts | 107° |
| 2026-04-30 05:12 | 22.95779 | 50.34178 | 34878 ft | 536 kts | 107° |
| 2026-04-30 05:13 | 22.94039 | 50.42109 | 34886 ft | 536 kts | 108° |
| 2026-04-30 05:13 | 22.92307 | 50.49985 | 34886 ft | 536 kts | 108° |
| 2026-04-30 05:14 | 22.90557 | 50.57922 | 34886 ft | 536 kts | 108° |
| 2026-04-30 05:14 | 22.88814 | 50.65807 | 34885 ft | 536 kts | 108° |
| 2026-04-30 05:15 | 22.87214 | 50.73029 | 34886 ft | 535 kts | 108° |
| 2026-04-30 05:15 | 22.85306 | 50.81618 | 34885 ft | 535 kts | 108° |
| 2026-04-30 05:16 | 22.83561 | 50.89455 | 34883 ft | 535 kts | 108° |
| 2026-04-30 05:16 | 22.81786 | 50.97407 | 34883 ft | 535 kts | 108° |
| 2026-04-30 05:17 | 22.80032 | 51.05244 | 34883 ft | 535 kts | 108° |
| 2026-04-30 05:17 | 22.78246 | 51.13204 | 34882 ft | 535 kts | 108° |
| 2026-04-30 05:18 | 22.76451 | 51.21184 | 34881 ft | 535 kts | 108° |
| 2026-04-30 05:18 | 22.74685 | 51.29019 | 34882 ft | 535 kts | 108° |
| 2026-04-30 05:19 | 22.72895 | 51.36939 | 34881 ft | 535 kts | 108° |
| 2026-04-30 05:19 | 22.71306 | 51.43956 | 34881 ft | 535 kts | 108° |
| 2026-04-30 05:20 | 22.69526 | 51.51794 | 34881 ft | 535 kts | 108° |
| 2026-04-30 05:20 | 22.67735 | 51.59667 | 34879 ft | 535 kts | 108° |
| 2026-04-30 05:21 | 22.65931 | 51.67576 | 34885 ft | 525 kts | 109° |
| 2026-04-30 05:21 | 22.64180 | 51.75228 | 34879 ft | 530 kts | 108° |
| 2026-04-30 05:22 | 22.62382 | 51.83074 | 34885 ft | 531 kts | 108° |
| 2026-04-30 05:22 | 22.60599 | 51.90835 | 34884 ft | 525 kts | 109° |
| 2026-04-30 05:23 | 22.58801 | 51.98642 | 34878 ft | 531 kts | 108° |
| 2026-04-30 05:23 | 22.56910 | 52.06840 | 34883 ft | 527 kts | 109° |
| 2026-04-30 05:24 | 22.55132 | 52.14520 | 34878 ft | 518 kts | 109° |
| 2026-04-30 05:24 | 22.53365 | 52.22136 | 34877 ft | 525 kts | 108° |
| 2026-04-30 05:25 | 22.51813 | 52.28815 | 34889 ft | 528 kts | 108° |
| 2026-04-30 05:25 | 22.50033 | 52.36451 | 34875 ft | 521 kts | 108° |
| 2026-04-30 05:26 | 22.49149 | 52.40229 | 34875 ft | 509 kts | 108° |
| 2026-04-30 05:26 | 22.48288 | 52.43921 | 34873 ft | 505 kts | 108° |
| 2026-04-30 05:26 | 22.46466 | 52.51706 | 34872 ft | 500 kts | 107° |
| 2026-04-30 05:27 | 22.44754 | 52.59008 | 34866 ft | 496 kts | 106° |
| 2026-04-30 05:27 | 22.43065 | 52.66205 | 34857 ft | 500 kts | 107° |
| 2026-04-30 05:28 | 22.41312 | 52.73648 | 34858 ft | 506 kts | 107° |
| 2026-04-30 05:28 | 22.39579 | 52.80987 | 34866 ft | 501 kts | 106° |
| 2026-04-30 05:29 | 22.37860 | 52.88257 | 34859 ft | 499 kts | 107° |
| 2026-04-30 05:29 | 22.36129 | 52.95561 | 34856 ft | 504 kts | 107° |
| 2026-04-30 05:30 | 22.34392 | 53.02871 | 34863 ft | 499 kts | 107° |
| 2026-04-30 05:30 | 22.32669 | 53.10111 | 34856 ft | 497 kts | 107° |
| 2026-04-30 05:31 | 22.30961 | 53.17266 | 34865 ft | 490 kts | 107° |
| 2026-04-30 05:31 | 22.29497 | 53.23395 | 34863 ft | 492 kts | 107° |
| 2026-04-30 05:32 | 22.27768 | 53.30611 | 34863 ft | 497 kts | 107° |
| 2026-04-30 05:32 | 22.26031 | 53.37852 | 34862 ft | 497 kts | 107° |
| 2026-04-30 05:33 | 22.24268 | 53.45183 | 34861 ft | 496 kts | 107° |
| 2026-04-30 05:33 | 22.22529 | 53.52399 | 34862 ft | 496 kts | 107° |
| 2026-04-30 05:34 | 22.20787 | 53.59611 | 34861 ft | 496 kts | 107° |
| 2026-04-30 05:34 | 22.19033 | 53.66860 | 34860 ft | 496 kts | 107° |
| 2026-04-30 05:35 | 22.17258 | 53.74179 | 34860 ft | 496 kts | 107° |
| 2026-04-30 05:35 | 22.15498 | 53.81419 | 34859 ft | 496 kts | 107° |
| 2026-04-30 05:36 | 22.13754 | 53.88581 | 34858 ft | 496 kts | 107° |
| 2026-04-30 05:36 | 22.11983 | 53.95840 | 34857 ft | 496 kts | 107° |
| 2026-04-30 05:37 | 22.10222 | 54.03042 | 34858 ft | 496 kts | 107° |
| 2026-04-30 05:37 | 22.08421 | 54.10393 | 34856 ft | 496 kts | 107° |
| 2026-04-30 05:38 | 22.06657 | 54.17579 | 34860 ft | 496 kts | 107° |
| 2026-04-30 05:38 | 22.04921 | 54.24636 | 34865 ft | 496 kts | 107° |
| 2026-04-30 05:39 | 22.03040 | 54.32263 | 34865 ft | 496 kts | 107° |
| 2026-04-30 05:39 | 22.01543 | 54.38326 | 34864 ft | 496 kts | 107° |
| 2026-04-30 05:40 | 21.99753 | 54.45560 | 34863 ft | 496 kts | 107° |
| 2026-04-30 05:40 | 21.97863 | 54.53180 | 34862 ft | 496 kts | 107° |
| 2026-04-30 05:41 | 21.96068 | 54.60405 | 34861 ft | 496 kts | 107° |
| 2026-04-30 05:41 | 21.94311 | 54.67462 | 34860 ft | 496 kts | 107° |
| 2026-04-30 05:42 | 21.92380 | 54.75200 | 34860 ft | 496 kts | 107° |
| 2026-04-30 05:42 | 21.90589 | 54.82367 | 34859 ft | 496 kts | 107° |
| 2026-04-30 05:43 | 21.88790 | 54.89547 | 34856 ft | 496 kts | 107° |
| 2026-04-30 05:43 | 21.87271 | 54.95599 | 34858 ft | 496 kts | 107° |
| 2026-04-30 05:44 | 21.85482 | 55.02715 | 34856 ft | 496 kts | 107° |
| 2026-04-30 05:44 | 21.83711 | 55.09748 | 34855 ft | 496 kts | 107° |
| 2026-04-30 05:45 | 21.81852 | 55.17112 | 34854 ft | 496 kts | 107° |
| 2026-04-30 05:45 | 21.80042 | 55.24279 | 34853 ft | 496 kts | 107° |
| 2026-04-30 05:46 | 21.78269 | 55.31346 | 34852 ft | 495 kts | 107° |
| 2026-04-30 05:46 | 21.76400 | 55.38691 | 34849 ft | 495 kts | 107° |
| 2026-04-30 05:47 | 21.74562 | 55.45888 | 34850 ft | 495 kts | 107° |
| 2026-04-30 05:47 | 21.72747 | 55.52989 | 34848 ft | 495 kts | 107° |
| 2026-04-30 05:48 | 21.71424 | 55.60266 | 34845 ft | 497 kts | 98° |
| 2026-04-30 05:48 | 21.71058 | 55.67770 | 34845 ft | 499 kts | 95° |
| 2026-04-30 05:49 | 21.70661 | 55.75232 | 34845 ft | 499 kts | 96° |
| 2026-04-30 05:49 | 21.70220 | 55.82705 | 34842 ft | 500 kts | 96° |
| 2026-04-30 05:50 | 21.69778 | 55.90158 | 34841 ft | 499 kts | 96° |
| 2026-04-30 05:50 | 21.69330 | 55.97608 | 34840 ft | 499 kts | 96° |
| 2026-04-30 05:51 | 21.68874 | 56.05108 | 34838 ft | 499 kts | 96° |
| 2026-04-30 05:51 | 21.68418 | 56.12563 | 34836 ft | 499 kts | 96° |
| 2026-04-30 05:52 | 21.67958 | 56.20065 | 34835 ft | 499 kts | 96° |
| 2026-04-30 05:52 | 21.67527 | 56.27524 | 34833 ft | 499 kts | 96° |
| 2026-04-30 05:53 | 21.67076 | 56.35028 | 34830 ft | 499 kts | 96° |
| 2026-04-30 05:53 | 21.66612 | 56.42576 | 34831 ft | 499 kts | 96° |
| 2026-04-30 05:54 | 21.66148 | 56.50033 | 34828 ft | 499 kts | 96° |
| 2026-04-30 05:54 | 21.65678 | 56.57538 | 34826 ft | 499 kts | 96° |
| 2026-04-30 05:55 | 21.65207 | 56.64989 | 34825 ft | 499 kts | 96° |
| 2026-04-30 05:55 | 21.64811 | 56.71222 | 34826 ft | 499 kts | 96° |
| 2026-04-30 05:56 | 21.64269 | 56.79901 | 34820 ft | 499 kts | 96° |
| 2026-04-30 05:56 | 21.64042 | 56.83524 | 34820 ft | 499 kts | 96° |
| 2026-04-30 05:57 | 21.63374 | 56.93744 | 34820 ft | 499 kts | 96° |
| 2026-04-30 05:57 | 21.62880 | 57.01196 | 34815 ft | 499 kts | 96° |
| 2026-04-30 05:58 | 21.62381 | 57.08712 | 34814 ft | 499 kts | 96° |
| 2026-04-30 05:58 | 21.61883 | 57.16185 | 34813 ft | 499 kts | 96° |
| 2026-04-30 05:59 | 21.61379 | 57.23627 | 34808 ft | 499 kts | 96° |
| 2026-04-30 05:59 | 21.60866 | 57.31162 | 34808 ft | 499 kts | 96° |
| 2026-04-30 06:00 | 21.60387 | 57.38618 | 34808 ft | 499 kts | 96° |
| 2026-04-30 06:00 | 21.59881 | 57.46062 | 34804 ft | 499 kts | 96° |
| 2026-04-30 06:01 | 21.59364 | 57.53498 | 34804 ft | 499 kts | 96° |
| 2026-04-30 06:01 | 21.58844 | 57.60937 | 34803 ft | 499 kts | 96° |
| 2026-04-30 06:02 | 21.58034 | 57.68387 | 34802 ft | 497 kts | 103° |
| 2026-04-30 06:02 | 21.56302 | 57.75521 | 34799 ft | 496 kts | 109° |
| 2026-04-30 06:03 | 21.54144 | 57.82649 | 34800 ft | 495 kts | 110° |
| 2026-04-30 06:03 | 21.52061 | 57.89698 | 34801 ft | 495 kts | 109° |
| 2026-04-30 06:04 | 21.50050 | 57.96735 | 34797 ft | 495 kts | 109° |
| 2026-04-30 06:05 | 21.47032 | 58.07446 | 34797 ft | 495 kts | 109° |
| 2026-04-30 06:05 | 21.45063 | 58.14447 | 34796 ft | 495 kts | 109° |
| 2026-04-30 06:06 | 21.42969 | 58.21843 | 34793 ft | 495 kts | 109° |
| 2026-04-30 06:06 | 21.40961 | 58.28918 | 34793 ft | 495 kts | 109° |
| 2026-04-30 06:07 | 21.38935 | 58.36038 | 34792 ft | 495 kts | 109° |
| 2026-04-30 06:07 | 21.36920 | 58.43110 | 34791 ft | 495 kts | 109° |
| 2026-04-30 06:08 | 21.34915 | 58.50185 | 34792 ft | 495 kts | 109° |
| 2026-04-30 06:08 | 21.33223 | 58.56117 | 34792 ft | 495 kts | 109° |
| 2026-04-30 06:09 | 21.31195 | 58.63175 | 34791 ft | 495 kts | 109° |
| 2026-04-30 06:09 | 21.29175 | 58.70194 | 34790 ft | 495 kts | 109° |
| 2026-04-30 06:10 | 21.27140 | 58.77258 | 34790 ft | 495 kts | 109° |
| 2026-04-30 06:10 | 21.25092 | 58.84360 | 34789 ft | 495 kts | 109° |
| 2026-04-30 06:11 | 21.23005 | 58.91564 | 34789 ft | 495 kts | 109° |
| 2026-04-30 06:11 | 21.20971 | 58.98570 | 34789 ft | 495 kts | 109° |
| 2026-04-30 06:12 | 21.18887 | 59.05741 | 34789 ft | 495 kts | 109° |
| 2026-04-30 06:12 | 21.16857 | 59.12714 | 34789 ft | 495 kts | 109° |
| 2026-04-30 06:13 | 21.14822 | 59.19774 | 34790 ft | 495 kts | 109° |
| 2026-04-30 06:13 | 21.12771 | 59.26858 | 34789 ft | 495 kts | 109° |
| 2026-04-30 06:14 | 21.10718 | 59.33908 | 34789 ft | 495 kts | 109° |
| 2026-04-30 06:14 | 21.08662 | 59.41007 | 34789 ft | 495 kts | 109° |
| 2026-04-30 06:15 | 21.06613 | 59.48011 | 34790 ft | 495 kts | 109° |
| 2026-04-30 06:15 | 21.04571 | 59.54960 | 34790 ft | 495 kts | 109° |
| 2026-04-30 06:16 | 21.02461 | 59.62125 | 34790 ft | 495 kts | 109° |
| 2026-04-30 06:16 | 21.00388 | 59.69167 | 34790 ft | 495 kts | 109° |
| 2026-04-30 06:17 | 20.98208 | 59.76372 | 34790 ft | 495 kts | 110° |
| 2026-04-30 06:17 | 20.96018 | 59.83516 | 34792 ft | 495 kts | 110° |
| 2026-04-30 06:18 | 20.93861 | 59.90562 | 34792 ft | 495 kts | 110° |
| 2026-04-30 06:18 | 20.92062 | 59.96433 | 34792 ft | 495 kts | 110° |
| 2026-04-30 06:19 | 20.89870 | 60.03580 | 34788 ft | 498 kts | 110° |
| 2026-04-30 06:19 | 20.87724 | 60.10663 | 34787 ft | 502 kts | 110° |
| 2026-04-30 06:20 | 20.85483 | 60.18009 | 34787 ft | 502 kts | 110° |
| 2026-04-30 06:20 | 20.83312 | 60.25090 | 34787 ft | 501 kts | 110° |
| 2026-04-30 06:21 | 20.81123 | 60.32211 | 34787 ft | 501 kts | 110° |
| 2026-04-30 06:21 | 20.78838 | 60.39631 | 34787 ft | 501 kts | 110° |
| 2026-04-30 06:22 | 20.76670 | 60.46658 | 34787 ft | 501 kts | 110° |
| 2026-04-30 06:22 | 20.74527 | 60.53595 | 34788 ft | 501 kts | 110° |
| 2026-04-30 06:23 | 20.72281 | 60.60855 | 34788 ft | 501 kts | 110° |
| 2026-04-30 06:23 | 20.70120 | 60.67883 | 34788 ft | 501 kts | 110° |
| 2026-04-30 06:24 | 20.67907 | 60.75005 | 34787 ft | 501 kts | 110° |
| 2026-04-30 06:24 | 20.65703 | 60.82071 | 34787 ft | 501 kts | 110° |
| 2026-04-30 06:25 | 20.63488 | 60.89166 | 34787 ft | 501 kts | 110° |
| 2026-04-30 06:25 | 20.60941 | 60.96066 | 34789 ft | 498 kts | 119° |
| 2026-04-30 06:26 | 20.57484 | 61.02482 | 34788 ft | 497 kts | 124° |
| 2026-04-30 06:26 | 20.54276 | 61.07691 | 34787 ft | 496 kts | 126° |
| 2026-04-30 06:27 | 20.49858 | 61.14823 | 34787 ft | 496 kts | 125° |
| 2026-04-30 06:27 | 20.46713 | 61.20008 | 34787 ft | 496 kts | 125° |
| 2026-04-30 06:28 | 20.42979 | 61.26202 | 34787 ft | 496 kts | 124° |
| 2026-04-30 06:28 | 20.39369 | 61.32254 | 34787 ft | 496 kts | 124° |
| 2026-04-30 06:29 | 20.35567 | 61.38604 | 34787 ft | 496 kts | 124° |
| 2026-04-30 06:29 | 20.31816 | 61.44853 | 34787 ft | 496 kts | 124° |
| 2026-04-30 06:30 | 20.28085 | 61.51057 | 34787 ft | 496 kts | 124° |
| 2026-04-30 06:30 | 20.24360 | 61.57245 | 34787 ft | 496 kts | 124° |
| 2026-04-30 06:31 | 20.20602 | 61.63479 | 34787 ft | 496 kts | 124° |
| 2026-04-30 06:31 | 20.16865 | 61.69673 | 34787 ft | 496 kts | 124° |
| 2026-04-30 06:32 | 20.13193 | 61.75752 | 34787 ft | 496 kts | 124° |
| 2026-04-30 06:32 | 20.09322 | 61.82154 | 34787 ft | 496 kts | 124° |
| 2026-04-30 06:33 | 20.05582 | 61.88332 | 34787 ft | 496 kts | 125° |
| 2026-04-30 06:33 | 20.01842 | 61.94505 | 34788 ft | 496 kts | 125° |
| 2026-04-30 06:34 | 19.98051 | 62.00755 | 34787 ft | 496 kts | 125° |
| 2026-04-30 06:34 | 19.94310 | 62.06915 | 34787 ft | 496 kts | 125° |
| 2026-04-30 06:35 | 19.90562 | 62.13081 | 34787 ft | 496 kts | 125° |
| 2026-04-30 06:35 | 19.86809 | 62.19249 | 34787 ft | 496 kts | 125° |
| 2026-04-30 06:36 | 19.83090 | 62.25354 | 34788 ft | 495 kts | 125° |
| 2026-04-30 06:36 | 19.79291 | 62.31585 | 34788 ft | 496 kts | 125° |
| 2026-04-30 06:37 | 19.75541 | 62.37729 | 34792 ft | 495 kts | 125° |
| 2026-04-30 06:37 | 19.71769 | 62.43903 | 34795 ft | 493 kts | 125° |
| 2026-04-30 06:38 | 19.67995 | 62.50073 | 34798 ft | 494 kts | 125° |
| 2026-04-30 06:38 | 19.64254 | 62.56182 | 34812 ft | 492 kts | 125° |
| 2026-04-30 06:39 | 19.60539 | 62.62243 | 34820 ft | 492 kts | 124° |
| 2026-04-30 06:39 | 19.56880 | 62.68208 | 34820 ft | 490 kts | 124° |
| 2026-04-30 06:40 | 19.53057 | 62.74435 | 34817 ft | 493 kts | 125° |
| 2026-04-30 06:40 | 19.49298 | 62.80547 | 34820 ft | 493 kts | 125° |
| 2026-04-30 06:41 | 19.46165 | 62.85640 | 34822 ft | 490 kts | 125° |
| 2026-04-30 06:41 | 19.42430 | 62.91704 | 34823 ft | 490 kts | 125° |
| 2026-04-30 06:42 | 19.38754 | 62.97668 | 34822 ft | 490 kts | 125° |
| 2026-04-30 06:42 | 19.34948 | 63.03835 | 34822 ft | 490 kts | 125° |
| 2026-04-30 06:43 | 19.31208 | 63.09891 | 34824 ft | 490 kts | 125° |
| 2026-04-30 06:43 | 19.27343 | 63.16141 | 34824 ft | 490 kts | 125° |
| 2026-04-30 06:44 | 19.23595 | 63.22197 | 34824 ft | 490 kts | 125° |
| 2026-04-30 06:44 | 19.19855 | 63.28234 | 34823 ft | 490 kts | 125° |
| 2026-04-30 06:45 | 19.15869 | 63.34682 | 34825 ft | 490 kts | 125° |
| 2026-04-30 06:45 | 19.12126 | 63.40717 | 34826 ft | 490 kts | 125° |
| 2026-04-30 06:46 | 19.08374 | 63.46747 | 34826 ft | 490 kts | 125° |
| 2026-04-30 06:46 | 19.04598 | 63.52809 | 34827 ft | 490 kts | 125° |
| 2026-04-30 06:47 | 19.00840 | 63.58838 | 34828 ft | 490 kts | 125° |
| 2026-04-30 06:47 | 18.97695 | 63.63884 | 34828 ft | 490 kts | 125° |
| 2026-04-30 06:48 | 18.93903 | 63.69950 | 34828 ft | 490 kts | 125° |
| 2026-04-30 06:48 | 18.90144 | 63.75959 | 34828 ft | 490 kts | 125° |
| 2026-04-30 06:49 | 18.86351 | 63.82017 | 34829 ft | 490 kts | 125° |
| 2026-04-30 06:49 | 18.82590 | 63.88017 | 34829 ft | 490 kts | 125° |
| 2026-04-30 06:50 | 18.78843 | 63.94020 | 34830 ft | 490 kts | 125° |
| 2026-04-30 06:50 | 18.75058 | 64.00087 | 34831 ft | 490 kts | 125° |
| 2026-04-30 06:51 | 18.71290 | 64.06103 | 34831 ft | 490 kts | 125° |
| 2026-04-30 06:51 | 18.67528 | 64.12101 | 34831 ft | 490 kts | 125° |
| 2026-04-30 06:52 | 18.63760 | 64.18099 | 34831 ft | 490 kts | 125° |
| 2026-04-30 06:52 | 18.59966 | 64.24134 | 34832 ft | 490 kts | 125° |
| 2026-04-30 06:53 | 18.56210 | 64.30102 | 34832 ft | 490 kts | 125° |
| 2026-04-30 06:53 | 18.52437 | 64.36090 | 34832 ft | 490 kts | 125° |
| 2026-04-30 06:54 | 18.48659 | 64.42081 | 34832 ft | 490 kts | 125° |
| 2026-04-30 06:54 | 18.44880 | 64.48068 | 34833 ft | 490 kts | 125° |
| 2026-04-30 06:55 | 18.41076 | 64.54090 | 34834 ft | 490 kts | 125° |
| 2026-04-30 06:55 | 18.37294 | 64.60070 | 34834 ft | 490 kts | 125° |
| 2026-04-30 06:56 | 18.33507 | 64.66054 | 34834 ft | 490 kts | 125° |
| 2026-04-30 06:56 | 18.29704 | 64.72055 | 34835 ft | 490 kts | 125° |
| 2026-04-30 06:57 | 18.25892 | 64.78067 | 34836 ft | 490 kts | 125° |
| 2026-04-30 06:57 | 18.21948 | 64.84281 | 34836 ft | 490 kts | 125° |
| 2026-04-30 06:58 | 18.18163 | 64.90239 | 34836 ft | 490 kts | 125° |
| 2026-04-30 06:58 | 18.14345 | 64.96243 | 34836 ft | 490 kts | 125° |
| 2026-04-30 06:59 | 18.11111 | 65.01323 | 34836 ft | 490 kts | 125° |
| 2026-04-30 06:59 | 18.07288 | 65.07326 | 34836 ft | 490 kts | 126° |
| 2026-04-30 07:00 | 18.03491 | 65.13280 | 34837 ft | 490 kts | 126° |
| 2026-04-30 07:00 | 17.99610 | 65.19362 | 34837 ft | 490 kts | 126° |
| 2026-04-30 07:01 | 17.95811 | 65.25309 | 34838 ft | 490 kts | 126° |
| 2026-04-30 07:01 | 17.91881 | 65.31458 | 34838 ft | 490 kts | 126° |
| 2026-04-30 07:02 | 17.88020 | 65.37491 | 34838 ft | 490 kts | 126° |
| 2026-04-30 07:02 | 17.84220 | 65.43424 | 34839 ft | 490 kts | 126° |
| 2026-04-30 07:03 | 17.80407 | 65.49372 | 34839 ft | 490 kts | 126° |
| 2026-04-30 07:03 | 17.76551 | 65.55405 | 34839 ft | 490 kts | 126° |
| 2026-04-30 07:04 | 17.72719 | 65.61369 | 34840 ft | 490 kts | 126° |
| 2026-04-30 07:04 | 17.69392 | 65.66539 | 34840 ft | 490 kts | 126° |
| 2026-04-30 07:05 | 17.63633 | 65.75479 | 34840 ft | 490 kts | 126° |
| 2026-04-30 07:05 | 17.59741 | 65.81586 | 34840 ft | 490 kts | 124° |
| 2026-04-30 07:06 | 17.56066 | 65.87572 | 34841 ft | 490 kts | 124° |
| 2026-04-30 07:06 | 17.52339 | 65.93626 | 34841 ft | 490 kts | 124° |
| 2026-04-30 07:07 | 17.48552 | 65.99753 | 34841 ft | 490 kts | 124° |
| 2026-04-30 07:07 | 17.44737 | 66.05915 | 34841 ft | 490 kts | 124° |
| 2026-04-30 07:08 | 17.41034 | 66.11915 | 34841 ft | 490 kts | 124° |
| 2026-04-30 07:08 | 17.37283 | 66.17998 | 34842 ft | 490 kts | 124° |
| 2026-04-30 07:09 | 17.33571 | 66.23996 | 34842 ft | 490 kts | 124° |
| 2026-04-30 07:09 | 17.29887 | 66.29939 | 34841 ft | 490 kts | 124° |
| 2026-04-30 07:10 | 17.26140 | 66.35975 | 34842 ft | 490 kts | 124° |
| 2026-04-30 07:10 | 17.22424 | 66.41957 | 34842 ft | 490 kts | 124° |
| 2026-04-30 07:11 | 17.18681 | 66.47976 | 34843 ft | 490 kts | 124° |
| 2026-04-30 07:11 | 17.14956 | 66.53961 | 34843 ft | 490 kts | 125° |
| 2026-04-30 07:12 | 17.11862 | 66.58928 | 34843 ft | 490 kts | 125° |
| 2026-04-30 07:12 | 17.08113 | 66.64942 | 34843 ft | 490 kts | 125° |
| 2026-04-30 07:13 | 17.04390 | 66.70910 | 34843 ft | 490 kts | 125° |
| 2026-04-30 07:13 | 17.00662 | 66.76879 | 34843 ft | 490 kts | 125° |
| 2026-04-30 07:14 | 16.96937 | 66.82838 | 34871 ft | 489 kts | 124° |
| 2026-04-30 07:14 | 16.93225 | 66.88772 | 34876 ft | 486 kts | 124° |
| 2026-04-30 07:15 | 16.89522 | 66.94689 | 34848 ft | 488 kts | 124° |
| 2026-04-30 07:15 | 16.85751 | 67.00691 | 34881 ft | 493 kts | 122° |
| 2026-04-30 07:16 | 16.81966 | 67.06732 | 34975 ft | 501 kts | 121° |
| 2026-04-30 07:16 | 16.78133 | 67.12845 | 34993 ft | 509 kts | 121° |
| 2026-04-30 07:17 | 16.74245 | 67.19036 | 34976 ft | 510 kts | 121° |
| 2026-04-30 07:18 | 16.68404 | 67.28324 | 34986 ft | 507 kts | 121° |
| 2026-04-30 07:18 | 16.64626 | 67.34323 | 34994 ft | 513 kts | 121° |
| 2026-04-30 07:19 | 16.60515 | 67.40847 | 34994 ft | 516 kts | 121° |
| 2026-04-30 07:19 | 16.56567 | 67.47107 | 34994 ft | 515 kts | 121° |
| 2026-04-30 07:20 | 16.52584 | 67.53417 | 34994 ft | 514 kts | 121° |
| 2026-04-30 07:20 | 16.48642 | 67.59656 | 34994 ft | 514 kts | 121° |
| 2026-04-30 07:21 | 16.44696 | 67.65895 | 34994 ft | 514 kts | 121° |
| 2026-04-30 07:21 | 16.40769 | 67.72123 | 34994 ft | 514 kts | 121° |
| 2026-04-30 07:22 | 16.34668 | 67.81742 | 34994 ft | 514 kts | 121° |
| 2026-04-30 07:22 | 16.31303 | 67.87040 | 34994 ft | 514 kts | 121° |
| 2026-04-30 07:23 | 16.27353 | 67.93258 | 34994 ft | 514 kts | 121° |
| 2026-04-30 07:23 | 16.23422 | 67.99489 | 34994 ft | 514 kts | 121° |
| 2026-04-30 07:24 | 16.19495 | 68.05723 | 34994 ft | 514 kts | 121° |
| 2026-04-30 07:24 | 16.15567 | 68.11951 | 34994 ft | 514 kts | 121° |
| 2026-04-30 07:25 | 16.11635 | 68.18178 | 34994 ft | 514 kts | 121° |
| 2026-04-30 07:25 | 16.07694 | 68.24417 | 34994 ft | 514 kts | 121° |
| 2026-04-30 07:26 | 16.03780 | 68.30649 | 34994 ft | 514 kts | 121° |
| 2026-04-30 07:26 | 15.99851 | 68.36880 | 34994 ft | 514 kts | 121° |
| 2026-04-30 07:27 | 15.95862 | 68.43193 | 34994 ft | 514 kts | 121° |
| 2026-04-30 07:27 | 15.91926 | 68.49414 | 34994 ft | 514 kts | 121° |
| 2026-04-30 07:28 | 15.87994 | 68.55622 | 34994 ft | 514 kts | 121° |
| 2026-04-30 07:28 | 15.83974 | 68.61965 | 34994 ft | 514 kts | 121° |
| 2026-04-30 07:29 | 15.80011 | 68.68211 | 34994 ft | 514 kts | 121° |
| 2026-04-30 07:29 | 15.76044 | 68.74459 | 34994 ft | 515 kts | 121° |
| 2026-04-30 07:30 | 15.70129 | 68.83766 | 34994 ft | 515 kts | 121° |
| 2026-04-30 07:31 | 15.66128 | 68.90054 | 34994 ft | 515 kts | 121° |
| 2026-04-30 07:31 | 15.62183 | 68.96250 | 34994 ft | 515 kts | 121° |
| 2026-04-30 07:32 | 15.58232 | 69.02450 | 34994 ft | 515 kts | 121° |
| 2026-04-30 07:32 | 15.54300 | 69.08614 | 34994 ft | 515 kts | 121° |
| 2026-04-30 07:33 | 15.50325 | 69.14841 | 34994 ft | 515 kts | 121° |
| 2026-04-30 07:33 | 15.46284 | 69.21165 | 34994 ft | 515 kts | 121° |
| 2026-04-30 07:34 | 15.42326 | 69.27356 | 34994 ft | 515 kts | 121° |
| 2026-04-30 07:34 | 15.38356 | 69.33561 | 35301 ft | 515 kts | 121° |
| 2026-04-30 07:34 | 15.36384 | 69.36640 | 35724 ft | 511 kts | 121° |
| 2026-04-30 07:35 | 15.35009 | 69.38787 | 36015 ft | 509 kts | 121° |
| 2026-04-30 07:35 | 15.33056 | 69.41835 | 36348 ft | 507 kts | 121° |
| 2026-04-30 07:35 | 15.31080 | 69.44917 | 36651 ft | 506 kts | 121° |
| 2026-04-30 07:35 | 15.29086 | 69.48032 | 36955 ft | 505 kts | 121° |
| 2026-04-30 07:36 | 15.27114 | 69.51119 | 37001 ft | 505 kts | 121° |
| 2026-04-30 07:36 | 15.23222 | 69.57184 | 36994 ft | 505 kts | 121° |
| 2026-04-30 07:37 | 15.19264 | 69.63338 | 36994 ft | 504 kts | 121° |
| 2026-04-30 07:37 | 15.15307 | 69.69488 | 36994 ft | 504 kts | 121° |
| 2026-04-30 07:38 | 15.11392 | 69.75572 | 36994 ft | 504 kts | 121° |
| 2026-04-30 07:38 | 15.07507 | 69.81688 | 36994 ft | 504 kts | 120° |
| 2026-04-30 07:39 | 15.03651 | 69.87757 | 36994 ft | 504 kts | 120° |
| 2026-04-30 07:39 | 14.99811 | 69.93794 | 36994 ft | 504 kts | 120° |
| 2026-04-30 07:40 | 14.95877 | 69.99975 | 36994 ft | 504 kts | 120° |
| 2026-04-30 07:40 | 14.92019 | 70.06038 | 36994 ft | 504 kts | 120° |
| 2026-04-30 07:41 | 14.88172 | 70.12106 | 36994 ft | 504 kts | 120° |
| 2026-04-30 07:41 | 14.84311 | 70.18173 | 36994 ft | 504 kts | 120° |
| 2026-04-30 07:42 | 14.80423 | 70.24275 | 36994 ft | 504 kts | 120° |
| 2026-04-30 07:42 | 14.77112 | 70.29464 | 36994 ft | 504 kts | 120° |
| 2026-04-30 07:43 | 14.73220 | 70.35560 | 36994 ft | 504 kts | 121° |
| 2026-04-30 07:43 | 14.69335 | 70.41642 | 36994 ft | 504 kts | 121° |
| 2026-04-30 07:44 | 14.65385 | 70.47819 | 36994 ft | 504 kts | 121° |
| 2026-04-30 07:44 | 14.61511 | 70.53873 | 36994 ft | 504 kts | 121° |
| 2026-04-30 07:45 | 14.57537 | 70.60079 | 36994 ft | 504 kts | 121° |
| 2026-04-30 07:45 | 14.53473 | 70.66421 | 36994 ft | 504 kts | 121° |
| 2026-04-30 07:46 | 14.49615 | 70.72455 | 36994 ft | 504 kts | 121° |
| 2026-04-30 07:46 | 14.45688 | 70.78572 | 36994 ft | 504 kts | 121° |
| 2026-04-30 07:47 | 14.41806 | 70.84608 | 36994 ft | 504 kts | 121° |
| 2026-04-30 07:47 | 14.37947 | 70.90606 | 36991 ft | 504 kts | 121° |
| 2026-04-30 07:48 | 14.34693 | 70.95665 | 36994 ft | 504 kts | 120° |
| 2026-04-30 07:48 | 14.30858 | 71.01729 | 36994 ft | 504 kts | 120° |
| 2026-04-30 07:49 | 14.27002 | 71.07830 | 36988 ft | 504 kts | 120° |
| 2026-04-30 07:49 | 14.23164 | 71.13892 | 36983 ft | 504 kts | 120° |
| 2026-04-30 07:50 | 14.19326 | 71.19949 | 36978 ft | 504 kts | 120° |
| 2026-04-30 07:50 | 14.15405 | 71.26141 | 36973 ft | 505 kts | 120° |
| 2026-04-30 07:51 | 14.11576 | 71.32206 | 36971 ft | 505 kts | 120° |
| 2026-04-30 07:51 | 14.07733 | 71.38272 | 36973 ft | 505 kts | 120° |
| 2026-04-30 07:52 | 14.03860 | 71.44376 | 36971 ft | 505 kts | 120° |
| 2026-04-30 07:52 | 14.00021 | 71.50422 | 36970 ft | 505 kts | 120° |
| 2026-04-30 07:53 | 13.96095 | 71.56600 | 36969 ft | 505 kts | 120° |
| 2026-04-30 07:53 | 13.92250 | 71.62646 | 36969 ft | 505 kts | 120° |
| 2026-04-30 07:54 | 13.88363 | 71.68754 | 36970 ft | 505 kts | 120° |
| 2026-04-30 07:54 | 13.84530 | 71.74785 | 36968 ft | 505 kts | 120° |
| 2026-04-30 07:55 | 13.80677 | 71.80837 | 36967 ft | 504 kts | 120° |
| 2026-04-30 07:55 | 13.76822 | 71.86875 | 36968 ft | 504 kts | 120° |
| 2026-04-30 07:56 | 13.72966 | 71.92911 | 36968 ft | 505 kts | 120° |
| 2026-04-30 07:56 | 13.68952 | 71.99190 | 36965 ft | 505 kts | 120° |
| 2026-04-30 07:57 | 13.65155 | 72.05258 | 36965 ft | 504 kts | 119° |
| 2026-04-30 07:57 | 13.61421 | 72.11304 | 36966 ft | 504 kts | 120° |
| 2026-04-30 07:58 | 13.57643 | 72.17399 | 36965 ft | 504 kts | 120° |
| 2026-04-30 07:58 | 13.53860 | 72.23492 | 36963 ft | 504 kts | 120° |
| 2026-04-30 07:59 | 13.50699 | 72.28580 | 36961 ft | 504 kts | 120° |
| 2026-04-30 07:59 | 13.46327 | 72.35645 | 36962 ft | 504 kts | 120° |
| 2026-04-30 08:00 | 13.41094 | 72.44077 | 36960 ft | 504 kts | 120° |
| 2026-04-30 08:00 | 13.37303 | 72.50176 | 36959 ft | 504 kts | 120° |
| 2026-04-30 08:01 | 13.33549 | 72.56208 | 36957 ft | 504 kts | 120° |
| 2026-04-30 08:01 | 13.29724 | 72.62350 | 36957 ft | 503 kts | 120° |
| 2026-04-30 08:02 | 13.24061 | 72.71435 | 36955 ft | 503 kts | 120° |
| 2026-04-30 08:03 | 13.16502 | 72.83548 | 36953 ft | 503 kts | 120° |
| 2026-04-30 08:04 | 13.12689 | 72.89652 | 36951 ft | 503 kts | 120° |
| 2026-04-30 08:04 | 13.08905 | 72.95704 | 36947 ft | 503 kts | 120° |
| 2026-04-30 08:05 | 13.05147 | 73.01712 | 36948 ft | 503 kts | 120° |
| 2026-04-30 08:05 | 13.01334 | 73.07804 | 36949 ft | 503 kts | 120° |
| 2026-04-30 08:06 | 12.97555 | 73.13836 | 36942 ft | 503 kts | 120° |
| 2026-04-30 08:06 | 12.93775 | 73.19878 | 36940 ft | 503 kts | 120° |
| 2026-04-30 08:07 | 12.89993 | 73.25915 | 36941 ft | 503 kts | 120° |
| 2026-04-30 08:07 | 12.86688 | 73.31177 | 36942 ft | 503 kts | 120° |
| 2026-04-30 08:08 | 12.82768 | 73.37412 | 36938 ft | 503 kts | 120° |
| 2026-04-30 08:08 | 12.78973 | 73.43446 | 36932 ft | 503 kts | 120° |
| 2026-04-30 08:09 | 12.75149 | 73.49523 | 36932 ft | 503 kts | 120° |
| 2026-04-30 08:09 | 12.71351 | 73.55547 | 36915 ft | 503 kts | 120° |
| 2026-04-30 08:10 | 12.67504 | 73.61647 | 36909 ft | 503 kts | 120° |
| 2026-04-30 08:10 | 12.63597 | 73.67838 | 36904 ft | 503 kts | 120° |
| 2026-04-30 08:11 | 12.59800 | 73.73852 | 36904 ft | 503 kts | 120° |
| 2026-04-30 08:11 | 12.56009 | 73.79878 | 36904 ft | 503 kts | 120° |
| 2026-04-30 08:12 | 12.52211 | 73.85902 | 36901 ft | 503 kts | 120° |
| 2026-04-30 08:12 | 12.48398 | 73.91937 | 36898 ft | 503 kts | 120° |
| 2026-04-30 08:13 | 12.44597 | 73.97950 | 36896 ft | 503 kts | 120° |
| 2026-04-30 08:13 | 12.41588 | 74.02722 | 36896 ft | 503 kts | 120° |
| 2026-04-30 08:14 | 12.37786 | 74.08729 | 36894 ft | 503 kts | 120° |
| 2026-04-30 08:14 | 12.33925 | 74.14820 | 36893 ft | 503 kts | 120° |
| 2026-04-30 08:15 | 12.30123 | 74.20815 | 36893 ft | 503 kts | 120° |
| 2026-04-30 08:15 | 12.26306 | 74.26831 | 36893 ft | 503 kts | 120° |
| 2026-04-30 08:16 | 12.22403 | 74.32801 | 36891 ft | 503 kts | 121° |
| 2026-04-30 08:16 | 12.19108 | 74.37733 | 36891 ft | 503 kts | 121° |
| 2026-04-30 08:17 | 12.14530 | 74.44619 | 36890 ft | 503 kts | 121° |
| 2026-04-30 08:17 | 12.10598 | 74.50543 | 36891 ft | 503 kts | 121° |
| 2026-04-30 08:18 | 12.06670 | 74.56464 | 36891 ft | 503 kts | 121° |
| 2026-04-30 08:18 | 12.03477 | 74.61298 | 36891 ft | 503 kts | 121° |
| 2026-04-30 08:19 | 11.99333 | 74.67556 | 36890 ft | 503 kts | 121° |
| 2026-04-30 08:19 | 11.95397 | 74.73489 | 36890 ft | 503 kts | 121° |
| 2026-04-30 08:20 | 11.91356 | 74.79576 | 36892 ft | 506 kts | 121° |
| 2026-04-30 08:20 | 11.87234 | 74.85778 | 36893 ft | 512 kts | 121° |
| 2026-04-30 08:21 | 11.83239 | 74.91786 | 36892 ft | 509 kts | 121° |
| 2026-04-30 08:21 | 11.79229 | 74.97814 | 36891 ft | 504 kts | 121° |
| 2026-04-30 08:22 | 11.75290 | 75.03732 | 36887 ft | 507 kts | 121° |
| 2026-04-30 08:22 | 11.71887 | 75.08840 | 36889 ft | 514 kts | 122° |
| 2026-04-30 08:23 | 11.67163 | 75.15926 | 36889 ft | 516 kts | 121° |
| 2026-04-30 08:23 | 11.63142 | 75.21957 | 36889 ft | 511 kts | 121° |
| 2026-04-30 08:24 | 11.59688 | 75.27134 | 36891 ft | 511 kts | 121° |
| 2026-04-30 08:24 | 11.55668 | 75.33154 | 36894 ft | 515 kts | 121° |
| 2026-04-30 08:25 | 11.51603 | 75.39240 | 36893 ft | 516 kts | 122° |
| 2026-04-30 08:25 | 11.47551 | 75.45301 | 36892 ft | 516 kts | 122° |
| 2026-04-30 08:26 | 11.43514 | 75.51337 | 36895 ft | 515 kts | 121° |
| 2026-04-30 08:26 | 11.39478 | 75.57379 | 36898 ft | 514 kts | 121° |
| 2026-04-30 08:27 | 11.35450 | 75.63397 | 36897 ft | 514 kts | 121° |
| 2026-04-30 08:27 | 11.31413 | 75.69418 | 36896 ft | 513 kts | 122° |
| 2026-04-30 08:28 | 11.27200 | 75.75699 | 36899 ft | 515 kts | 122° |
| 2026-04-30 08:28 | 11.23248 | 75.81588 | 36900 ft | 517 kts | 122° |
| 2026-04-30 08:29 | 11.19084 | 75.87592 | 36900 ft | 518 kts | 123° |
| 2026-04-30 08:29 | 11.14863 | 75.93590 | 36899 ft | 517 kts | 123° |
| 2026-04-30 08:30 | 11.10798 | 75.99654 | 36900 ft | 517 kts | 120° |
| 2026-04-30 08:30 | 11.07052 | 76.05949 | 36900 ft | 518 kts | 118° |
| 2026-04-30 08:31 | 11.03303 | 76.12275 | 36900 ft | 518 kts | 119° |
| 2026-04-30 08:31 | 11.00047 | 76.17682 | 36900 ft | 517 kts | 119° |
| 2026-04-30 08:32 | 10.95627 | 76.24978 | 36901 ft | 517 kts | 119° |
| 2026-04-30 08:32 | 10.92447 | 76.30241 | 36901 ft | 517 kts | 119° |
| 2026-04-30 08:33 | 10.88358 | 76.36990 | 36901 ft | 518 kts | 119° |
| 2026-04-30 08:33 | 10.84595 | 76.43190 | 36902 ft | 518 kts | 119° |
| 2026-04-30 08:34 | 10.80880 | 76.49304 | 36902 ft | 518 kts | 119° |
| 2026-04-30 08:34 | 10.76914 | 76.55827 | 36901 ft | 518 kts | 119° |
| 2026-04-30 08:35 | 10.73120 | 76.62064 | 36901 ft | 518 kts | 119° |
| 2026-04-30 08:35 | 10.69301 | 76.68336 | 36901 ft | 518 kts | 119° |
| 2026-04-30 08:36 | 10.65511 | 76.74559 | 36901 ft | 518 kts | 119° |
| 2026-04-30 08:36 | 10.61702 | 76.80808 | 36901 ft | 518 kts | 119° |
| 2026-04-30 08:37 | 10.57905 | 76.87035 | 36901 ft | 518 kts | 119° |
| 2026-04-30 08:37 | 10.54726 | 76.92245 | 36900 ft | 518 kts | 119° |
| 2026-04-30 08:38 | 10.50280 | 76.99527 | 36897 ft | 518 kts | 119° |
| 2026-04-30 08:38 | 10.47068 | 77.04785 | 36898 ft | 518 kts | 119° |
| 2026-04-30 08:39 | 10.43239 | 77.11050 | 36899 ft | 518 kts | 119° |
| 2026-04-30 08:39 | 10.39425 | 77.17288 | 36887 ft | 518 kts | 119° |
| 2026-04-30 08:40 | 10.35647 | 77.23462 | 36879 ft | 518 kts | 119° |
| 2026-04-30 08:40 | 10.31843 | 77.29677 | 36880 ft | 518 kts | 120° |
| 2026-04-30 08:41 | 10.28008 | 77.35937 | 36867 ft | 518 kts | 119° |
| 2026-04-30 08:41 | 10.24205 | 77.42144 | 36866 ft | 517 kts | 120° |
| 2026-04-30 08:42 | 10.20377 | 77.48385 | 36865 ft | 517 kts | 119° |
| 2026-04-30 08:42 | 10.16580 | 77.54575 | 36853 ft | 515 kts | 119° |
| 2026-04-30 08:43 | 10.12765 | 77.60789 | 36828 ft | 513 kts | 119° |
| 2026-04-30 08:43 | 10.08974 | 77.66963 | 36828 ft | 511 kts | 119° |
| 2026-04-30 08:44 | 10.05193 | 77.73116 | 36830 ft | 515 kts | 119° |
| 2026-04-30 08:44 | 10.01401 | 77.79283 | 36830 ft | 516 kts | 119° |
| 2026-04-30 08:45 | 9.97623 | 77.85438 | 36817 ft | 511 kts | 119° |
| 2026-04-30 08:45 | 9.93897 | 77.91493 | 36817 ft | 510 kts | 119° |
| 2026-04-30 08:46 | 9.90070 | 77.97702 | 36818 ft | 511 kts | 119° |
| 2026-04-30 08:46 | 9.86297 | 78.03822 | 36819 ft | 512 kts | 119° |
| 2026-04-30 08:47 | 9.82675 | 78.10328 | 36820 ft | 504 kts | 111° |
| 2026-04-30 08:47 | 9.80241 | 78.16898 | 36813 ft | 493 kts | 105° |
| 2026-04-30 08:48 | 9.78183 | 78.23719 | 36815 ft | 500 kts | 104° |
| 2026-04-30 08:48 | 9.76073 | 78.30494 | 36818 ft | 504 kts | 105° |
| 2026-04-30 08:49 | 9.74282 | 78.36041 | 36819 ft | 489 kts | 105° |
| 2026-04-30 08:49 | 9.71766 | 78.43772 | 36789 ft | 494 kts | 105° |
| 2026-04-30 08:50 | 9.69949 | 78.49369 | 36789 ft | 502 kts | 105° |
| 2026-04-30 08:50 | 9.67682 | 78.56327 | 36794 ft | 499 kts | 105° |
| 2026-04-30 08:51 | 9.65522 | 78.62958 | 36795 ft | 486 kts | 107° |
| 2026-04-30 08:51 | 9.63378 | 78.69499 | 36788 ft | 493 kts | 105° |
| 2026-04-30 08:52 | 9.61190 | 78.76191 | 36787 ft | 502 kts | 105° |
| 2026-04-30 08:52 | 9.58974 | 78.82970 | 36794 ft | 511 kts | 105° |
| 2026-04-30 08:53 | 9.56752 | 78.89784 | 37113 ft | 494 kts | 107° |
| 2026-04-30 08:53 | 9.55677 | 78.93053 | 36876 ft | 483 kts | 107° |
| 2026-04-30 08:53 | 9.54623 | 78.96262 | 36853 ft | 477 kts | 108° |
| 2026-04-30 08:54 | 9.52522 | 79.02645 | 36792 ft | 482 kts | 106° |
| 2026-04-30 08:54 | 9.50323 | 79.09345 | 36797 ft | 495 kts | 106° |
| 2026-04-30 08:55 | 9.48016 | 79.16333 | 36798 ft | 506 kts | 106° |
| 2026-04-30 08:55 | 9.45747 | 79.23131 | 36803 ft | 512 kts | 106° |
| 2026-04-30 08:56 | 9.43460 | 79.29988 | 36805 ft | 512 kts | 106° |
| 2026-04-30 08:56 | 9.41195 | 79.36809 | 36805 ft | 510 kts | 106° |
| 2026-04-30 08:57 | 9.38925 | 79.43635 | 36803 ft | 511 kts | 106° |
| 2026-04-30 08:57 | 9.36655 | 79.50433 | 36811 ft | 512 kts | 106° |
| 2026-04-30 08:58 | 9.34745 | 79.56149 | 36812 ft | 512 kts | 106° |
| 2026-04-30 08:58 | 9.32091 | 79.64086 | 36808 ft | 511 kts | 106° |
| 2026-04-30 08:59 | 9.30188 | 79.69794 | 36819 ft | 511 kts | 106° |
| 2026-04-30 08:59 | 9.27924 | 79.76610 | 36827 ft | 510 kts | 107° |
| 2026-04-30 09:00 | 9.25662 | 79.83392 | 36826 ft | 510 kts | 107° |
| 2026-04-30 09:00 | 9.23304 | 79.90450 | 36826 ft | 510 kts | 107° |
| 2026-04-30 09:01 | 9.21055 | 79.97180 | 36836 ft | 495 kts | 107° |
| 2026-04-30 09:01 | 9.18840 | 80.03812 | 36830 ft | 499 kts | 106° |
| 2026-04-30 09:02 | 9.15449 | 80.13930 | 36828 ft | 511 kts | 107° |
| 2026-04-30 09:02 | 9.13165 | 80.20769 | 36841 ft | 494 kts | 109° |
| 2026-04-30 09:03 | 9.10976 | 80.27281 | 36837 ft | 485 kts | 110° |
| 2026-04-30 09:03 | 9.08797 | 80.33762 | 36835 ft | 481 kts | 110° |
| 2026-04-30 09:04 | 9.06666 | 80.40131 | 36835 ft | 481 kts | 110° |
| 2026-04-30 09:04 | 9.04506 | 80.46586 | 36835 ft | 482 kts | 110° |
| 2026-04-30 09:05 | 9.02350 | 80.53014 | 36835 ft | 482 kts | 110° |
| 2026-04-30 09:05 | 9.00180 | 80.59478 | 36834 ft | 481 kts | 110° |
| 2026-04-30 09:06 | 8.98024 | 80.65892 | 36832 ft | 481 kts | 110° |
| 2026-04-30 09:06 | 8.95864 | 80.72313 | 36830 ft | 482 kts | 110° |
| 2026-04-30 09:07 | 8.93699 | 80.78745 | 36830 ft | 483 kts | 110° |
| 2026-04-30 09:07 | 8.91507 | 80.85256 | 36828 ft | 482 kts | 110° |
| 2026-04-30 09:08 | 8.89340 | 80.91685 | 36824 ft | 482 kts | 110° |
| 2026-04-30 09:08 | 8.87142 | 80.98203 | 36824 ft | 482 kts | 110° |
| 2026-04-30 09:09 | 8.84975 | 81.04624 | 36825 ft | 482 kts | 110° |
| 2026-04-30 09:09 | 8.82863 | 81.10881 | 36823 ft | 482 kts | 110° |
| 2026-04-30 09:10 | 8.80633 | 81.17483 | 36821 ft | 483 kts | 110° |
| 2026-04-30 09:10 | 8.78463 | 81.23901 | 36821 ft | 483 kts | 110° |
| 2026-04-30 09:11 | 8.76627 | 81.29330 | 36820 ft | 483 kts | 110° |
| 2026-04-30 09:11 | 8.74453 | 81.35754 | 36821 ft | 482 kts | 110° |
| 2026-04-30 09:12 | 8.72262 | 81.42224 | 36821 ft | 482 kts | 110° |
| 2026-04-30 09:12 | 8.70117 | 81.48553 | 36822 ft | 482 kts | 110° |
| 2026-04-30 09:13 | 8.67911 | 81.55061 | 36821 ft | 482 kts | 110° |
| 2026-04-30 09:13 | 8.65733 | 81.61473 | 36824 ft | 480 kts | 109° |
| 2026-04-30 09:14 | 8.63524 | 81.67987 | 36825 ft | 480 kts | 110° |
| 2026-04-30 09:14 | 8.61349 | 81.74390 | 36825 ft | 482 kts | 110° |
| 2026-04-30 09:15 | 8.59082 | 81.81038 | 36826 ft | 494 kts | 107° |
| 2026-04-30 09:15 | 8.56794 | 81.87780 | 36831 ft | 505 kts | 107° |
| 2026-04-30 09:16 | 8.54478 | 81.94590 | 36831 ft | 511 kts | 107° |
| 2026-04-30 09:16 | 8.52132 | 82.01482 | 36823 ft | 497 kts | 107° |
| 2026-04-30 09:17 | 8.49885 | 82.08077 | 36831 ft | 501 kts | 107° |
| 2026-04-30 09:17 | 8.47544 | 82.14942 | 36834 ft | 510 kts | 107° |
| 2026-04-30 09:18 | 8.45547 | 82.20794 | 36834 ft | 508 kts | 107° |
| 2026-04-30 09:18 | 8.43240 | 82.27563 | 36847 ft | 504 kts | 108° |
| 2026-04-30 09:19 | 8.42118 | 82.30865 | 36843 ft | 491 kts | 109° |
| 2026-04-30 09:19 | 8.40992 | 82.34152 | 36838 ft | 485 kts | 109° |
| 2026-04-30 09:19 | 8.38800 | 82.40561 | 36836 ft | 480 kts | 110° |
| 2026-04-30 09:20 | 8.36617 | 82.46939 | 36836 ft | 481 kts | 110° |
| 2026-04-30 09:20 | 8.34423 | 82.53350 | 36836 ft | 482 kts | 110° |
| 2026-04-30 09:21 | 8.32219 | 82.59802 | 36836 ft | 482 kts | 110° |
| 2026-04-30 09:21 | 8.30028 | 82.66203 | 36838 ft | 482 kts | 110° |
| 2026-04-30 09:22 | 8.28124 | 82.71754 | 36839 ft | 482 kts | 110° |
| 2026-04-30 09:22 | 8.25927 | 82.78154 | 36837 ft | 482 kts | 110° |
| 2026-04-30 09:23 | 8.23729 | 82.84555 | 36837 ft | 482 kts | 110° |
| 2026-04-30 09:23 | 8.21573 | 82.90965 | 36837 ft | 482 kts | 109° |
| 2026-04-30 09:24 | 8.19530 | 82.97422 | 36837 ft | 482 kts | 109° |
| 2026-04-30 09:24 | 8.17451 | 83.03957 | 36837 ft | 482 kts | 109° |
| 2026-04-30 09:25 | 8.15390 | 83.10405 | 36837 ft | 482 kts | 109° |
| 2026-04-30 09:25 | 8.13328 | 83.16842 | 36837 ft | 482 kts | 109° |
| 2026-04-30 09:26 | 8.11211 | 83.23463 | 36837 ft | 482 kts | 109° |
| 2026-04-30 09:26 | 8.09167 | 83.29863 | 36837 ft | 482 kts | 109° |
| 2026-04-30 09:27 | 8.07087 | 83.36360 | 36837 ft | 482 kts | 109° |
| 2026-04-30 09:27 | 8.05026 | 83.42789 | 36837 ft | 482 kts | 109° |
| 2026-04-30 09:28 | 8.03292 | 83.48192 | 36837 ft | 482 kts | 109° |
| 2026-04-30 09:28 | 8.01212 | 83.54668 | 36837 ft | 482 kts | 109° |
| 2026-04-30 09:29 | 7.99143 | 83.61108 | 36837 ft | 482 kts | 109° |
| 2026-04-30 09:29 | 7.97071 | 83.67553 | 36837 ft | 482 kts | 109° |
| 2026-04-30 09:30 | 7.95000 | 83.73990 | 36837 ft | 482 kts | 109° |
| 2026-04-30 09:30 | 7.92843 | 83.80691 | 36837 ft | 482 kts | 109° |
| 2026-04-30 09:31 | 7.90843 | 83.86901 | 36837 ft | 482 kts | 109° |
| 2026-04-30 09:31 | 7.88784 | 83.93292 | 36837 ft | 482 kts | 109° |
| 2026-04-30 09:32 | 7.86704 | 83.99742 | 36837 ft | 482 kts | 109° |
| 2026-04-30 09:32 | 7.84630 | 84.06172 | 36837 ft | 482 kts | 109° |
| 2026-04-30 09:33 | 7.82471 | 84.12861 | 36837 ft | 482 kts | 109° |
| 2026-04-30 09:33 | 7.80391 | 84.19299 | 36837 ft | 482 kts | 109° |
| 2026-04-30 09:34 | 7.78315 | 84.25722 | 36837 ft | 482 kts | 109° |
| 2026-04-30 09:34 | 7.76207 | 84.32242 | 36837 ft | 482 kts | 109° |
| 2026-04-30 09:35 | 7.74112 | 84.38718 | 36837 ft | 482 kts | 109° |
| 2026-04-30 09:35 | 7.72032 | 84.45144 | 36837 ft | 482 kts | 109° |
| 2026-04-30 09:36 | 7.69950 | 84.51572 | 36837 ft | 482 kts | 109° |
| 2026-04-30 09:36 | 7.67866 | 84.58002 | 36837 ft | 482 kts | 109° |
| 2026-04-30 09:37 | 7.65780 | 84.64433 | 36837 ft | 482 kts | 109° |
| 2026-04-30 09:37 | 7.63725 | 84.70770 | 36837 ft | 482 kts | 109° |
| 2026-04-30 09:38 | 7.61595 | 84.77330 | 36837 ft | 482 kts | 109° |
| 2026-04-30 09:38 | 7.59519 | 84.83722 | 36837 ft | 482 kts | 109° |
| 2026-04-30 09:39 | 7.57417 | 84.90190 | 36837 ft | 482 kts | 109° |
| 2026-04-30 09:39 | 7.55326 | 84.96621 | 36837 ft | 482 kts | 109° |
| 2026-04-30 09:40 | 7.53214 | 85.03128 | 36837 ft | 482 kts | 109° |
| 2026-04-30 09:40 | 7.51451 | 85.08552 | 36837 ft | 482 kts | 109° |
| 2026-04-30 09:41 | 7.49342 | 85.15021 | 36837 ft | 482 kts | 109° |
| 2026-04-30 09:41 | 7.47220 | 85.21529 | 36837 ft | 482 kts | 109° |
| 2026-04-30 09:42 | 7.45123 | 85.27955 | 36837 ft | 482 kts | 109° |
| 2026-04-30 09:42 | 7.42983 | 85.34361 | 36837 ft | 482 kts | 111° |
| 2026-04-30 09:43 | 7.40572 | 85.40759 | 36837 ft | 481 kts | 112° |
| 2026-04-30 09:43 | 7.38174 | 85.47073 | 36837 ft | 481 kts | 112° |
| 2026-04-30 09:44 | 7.35785 | 85.53443 | 36837 ft | 481 kts | 112° |
| 2026-04-30 09:44 | 7.33413 | 85.59798 | 36837 ft | 481 kts | 111° |
| 2026-04-30 09:45 | 7.31062 | 85.66121 | 36837 ft | 481 kts | 111° |
| 2026-04-30 09:45 | 7.28665 | 85.72577 | 36837 ft | 481 kts | 111° |
| 2026-04-30 09:46 | 7.26316 | 85.78891 | 36837 ft | 481 kts | 111° |
| 2026-04-30 09:46 | 7.23914 | 85.85343 | 36837 ft | 481 kts | 111° |
| 2026-04-30 09:47 | 7.21561 | 85.91660 | 36837 ft | 481 kts | 111° |
| 2026-04-30 09:47 | 7.19274 | 85.97795 | 36837 ft | 481 kts | 111° |
| 2026-04-30 09:48 | 7.16829 | 86.04351 | 36837 ft | 481 kts | 111° |
| 2026-04-30 09:48 | 7.14471 | 86.10669 | 36837 ft | 481 kts | 111° |
| 2026-04-30 09:49 | 7.12109 | 86.16996 | 36837 ft | 481 kts | 111° |
| 2026-04-30 09:49 | 7.09736 | 86.23352 | 36808 ft | 482 kts | 112° |
| 2026-04-30 09:50 | 7.07839 | 86.28429 | 36807 ft | 481 kts | 112° |
| 2026-04-30 09:50 | 7.05383 | 86.34999 | 36807 ft | 482 kts | 112° |
| 2026-04-30 09:51 | 7.03022 | 86.41312 | 36807 ft | 482 kts | 112° |
| 2026-04-30 09:51 | 7.00628 | 86.47709 | 36807 ft | 482 kts | 112° |
| 2026-04-30 09:52 | 6.98266 | 86.54021 | 36807 ft | 482 kts | 112° |
| 2026-04-30 09:52 | 6.95869 | 86.60421 | 36807 ft | 482 kts | 112° |
| 2026-04-30 09:53 | 6.93426 | 86.66941 | 36807 ft | 482 kts | 112° |
| 2026-04-30 09:53 | 6.91056 | 86.73265 | 36807 ft | 482 kts | 112° |
| 2026-04-30 09:54 | 6.88688 | 86.79579 | 36807 ft | 482 kts | 112° |
| 2026-04-30 09:54 | 6.86327 | 86.85873 | 36807 ft | 482 kts | 112° |
| 2026-04-30 09:55 | 6.83936 | 86.92241 | 36807 ft | 482 kts | 112° |
| 2026-04-30 09:55 | 6.81503 | 86.98720 | 36807 ft | 482 kts | 112° |
| 2026-04-30 09:56 | 6.79134 | 87.05026 | 36807 ft | 482 kts | 112° |
| 2026-04-30 09:56 | 6.76718 | 87.11454 | 36807 ft | 482 kts | 112° |
| 2026-04-30 09:57 | 6.74747 | 87.16698 | 36807 ft | 482 kts | 112° |
| 2026-04-30 09:57 | 6.72359 | 87.23046 | 36807 ft | 482 kts | 112° |
| 2026-04-30 09:58 | 6.69954 | 87.29437 | 36807 ft | 482 kts | 112° |
| 2026-04-30 09:58 | 6.67577 | 87.35749 | 36807 ft | 482 kts | 112° |
| 2026-04-30 09:59 | 6.62805 | 87.48416 | 36807 ft | 482 kts | 112° |
| 2026-04-30 10:00 | 6.59160 | 87.58086 | 36807 ft | 482 kts | 112° |
| 2026-04-30 10:01 | 6.55670 | 87.67338 | 36807 ft | 482 kts | 112° |
| 2026-04-30 10:02 | 6.52042 | 87.76965 | 36807 ft | 482 kts | 112° |
| 2026-04-30 10:02 | 6.49663 | 87.83259 | 36807 ft | 482 kts | 112° |
| 2026-04-30 10:03 | 6.47249 | 87.89645 | 36807 ft | 482 kts | 112° |
| 2026-04-30 10:03 | 6.44878 | 87.95913 | 36807 ft | 482 kts | 112° |
| 2026-04-30 10:04 | 6.41830 | 88.01887 | 36808 ft | 480 kts | 126° |
| 2026-04-30 10:04 | 6.37655 | 88.07122 | 36807 ft | 480 kts | 131° |
| 2026-04-30 10:05 | 6.33248 | 88.12159 | 36807 ft | 479 kts | 131° |
| 2026-04-30 10:05 | 6.28836 | 88.17312 | 36807 ft | 479 kts | 131° |
| 2026-04-30 10:06 | 6.24523 | 88.22413 | 36807 ft | 479 kts | 130° |
| 2026-04-30 10:06 | 6.20073 | 88.27700 | 36807 ft | 479 kts | 130° |
| 2026-04-30 10:07 | 6.16492 | 88.31967 | 36807 ft | 479 kts | 130° |
| 2026-04-30 10:07 | 6.12181 | 88.37100 | 36807 ft | 479 kts | 130° |
| 2026-04-30 10:08 | 6.07876 | 88.42223 | 36807 ft | 479 kts | 130° |
| 2026-04-30 10:08 | 6.03592 | 88.47320 | 36807 ft | 479 kts | 130° |
| 2026-04-30 10:09 | 5.99202 | 88.52540 | 36807 ft | 479 kts | 130° |
| 2026-04-30 10:09 | 5.94893 | 88.57664 | 36807 ft | 479 kts | 130° |
| 2026-04-30 10:10 | 5.90603 | 88.62764 | 36807 ft | 479 kts | 130° |
| 2026-04-30 10:10 | 5.86275 | 88.67907 | 36807 ft | 479 kts | 130° |
| 2026-04-30 10:11 | 5.81969 | 88.73022 | 36807 ft | 479 kts | 130° |
| 2026-04-30 10:11 | 5.77631 | 88.78175 | 36807 ft | 479 kts | 130° |
| 2026-04-30 10:12 | 5.73327 | 88.83285 | 36806 ft | 479 kts | 130° |
| 2026-04-30 10:12 | 5.69008 | 88.88412 | 36806 ft | 481 kts | 131° |
| 2026-04-30 10:13 | 5.64714 | 88.93508 | 36806 ft | 481 kts | 131° |
| 2026-04-30 10:13 | 5.60347 | 88.98690 | 36804 ft | 483 kts | 131° |
| 2026-04-30 10:14 | 5.55998 | 89.03849 | 36803 ft | 485 kts | 131° |
| 2026-04-30 10:14 | 5.49336 | 89.11750 | 36803 ft | 486 kts | 131° |
| 2026-04-30 10:15 | 5.44991 | 89.16900 | 36802 ft | 486 kts | 131° |
| 2026-04-30 10:15 | 5.40619 | 89.22082 | 36802 ft | 486 kts | 131° |
| 2026-04-30 10:16 | 5.36210 | 89.27306 | 36802 ft | 486 kts | 131° |
| 2026-04-30 10:17 | 5.29646 | 89.35081 | 36802 ft | 486 kts | 131° |
| 2026-04-30 10:17 | 5.22966 | 89.42991 | 36802 ft | 486 kts | 131° |
| 2026-04-30 10:18 | 5.18559 | 89.48208 | 36802 ft | 486 kts | 131° |
| 2026-04-30 10:19 | 5.12290 | 89.55627 | 36802 ft | 486 kts | 131° |
| 2026-04-30 10:19 | 5.07758 | 89.60983 | 36791 ft | 486 kts | 130° |
| 2026-04-30 10:20 | 5.03385 | 89.66157 | 36787 ft | 485 kts | 129° |
| 2026-04-30 10:20 | 4.96780 | 89.73971 | 36787 ft | 485 kts | 129° |
| 2026-04-30 10:21 | 4.92410 | 89.79136 | 36787 ft | 485 kts | 129° |
| 2026-04-30 10:21 | 4.88040 | 89.84301 | 36787 ft | 485 kts | 129° |
| 2026-04-30 10:22 | 4.83669 | 89.89467 | 36787 ft | 485 kts | 129° |
| 2026-04-30 10:22 | 4.79264 | 89.94670 | 36787 ft | 485 kts | 129° |
| 2026-04-30 10:23 | 4.74897 | 89.99828 | 36787 ft | 485 kts | 129° |
| 2026-04-30 10:23 | 4.71266 | 90.04116 | 36787 ft | 485 kts | 129° |
| 2026-04-30 10:24 | 4.66835 | 90.09348 | 36787 ft | 485 kts | 129° |
| 2026-04-30 10:24 | 4.62463 | 90.14508 | 36787 ft | 485 kts | 129° |
| 2026-04-30 10:25 | 4.58036 | 90.19739 | 36787 ft | 485 kts | 129° |
| 2026-04-30 10:25 | 4.53637 | 90.24929 | 36787 ft | 485 kts | 129° |
| 2026-04-30 10:26 | 4.49294 | 90.30051 | 36787 ft | 485 kts | 129° |
| 2026-04-30 10:26 | 4.44799 | 90.35352 | 36787 ft | 485 kts | 129° |
| 2026-04-30 10:27 | 4.40878 | 90.40837 | 36788 ft | 484 kts | 117° |
| 2026-04-30 10:27 | 4.38674 | 90.47191 | 36789 ft | 484 kts | 103° |
| 2026-04-30 10:28 | 4.37260 | 90.53941 | 36787 ft | 484 kts | 102° |
| 2026-04-30 10:28 | 4.35777 | 90.60520 | 36787 ft | 484 kts | 103° |
| 2026-04-30 10:29 | 4.34161 | 90.67115 | 36787 ft | 484 kts | 104° |
| 2026-04-30 10:29 | 4.32528 | 90.73663 | 36787 ft | 484 kts | 104° |
| 2026-04-30 10:30 | 4.30893 | 90.80220 | 36787 ft | 484 kts | 104° |
| 2026-04-30 10:30 | 4.29203 | 90.86977 | 36787 ft | 484 kts | 104° |
| 2026-04-30 10:31 | 4.27568 | 90.93509 | 36787 ft | 484 kts | 104° |
| 2026-04-30 10:31 | 4.26150 | 90.99168 | 36787 ft | 484 kts | 104° |
| 2026-04-30 10:32 | 4.24510 | 91.05708 | 36787 ft | 484 kts | 104° |
| 2026-04-30 10:32 | 4.22874 | 91.12231 | 36787 ft | 484 kts | 104° |
| 2026-04-30 10:33 | 4.21224 | 91.18809 | 36787 ft | 484 kts | 104° |
| 2026-04-30 10:33 | 4.19573 | 91.25388 | 36787 ft | 484 kts | 104° |
| 2026-04-30 10:34 | 4.17919 | 91.31976 | 36787 ft | 484 kts | 104° |
| 2026-04-30 10:34 | 4.16277 | 91.38511 | 36787 ft | 484 kts | 104° |
| 2026-04-30 10:35 | 4.14624 | 91.45092 | 36787 ft | 484 kts | 104° |
| 2026-04-30 10:35 | 4.12967 | 91.51683 | 36787 ft | 484 kts | 104° |
| 2026-04-30 10:36 | 4.11356 | 91.58091 | 36787 ft | 484 kts | 104° |
| 2026-04-30 10:36 | 4.09665 | 91.64812 | 36787 ft | 484 kts | 104° |
| 2026-04-30 10:37 | 4.08022 | 91.71354 | 36787 ft | 484 kts | 104° |
| 2026-04-30 10:37 | 4.06364 | 91.77942 | 36787 ft | 484 kts | 104° |
| 2026-04-30 10:38 | 4.04716 | 91.84483 | 36787 ft | 484 kts | 104° |
| 2026-04-30 10:38 | 4.03069 | 91.91019 | 36787 ft | 484 kts | 104° |
| 2026-04-30 10:39 | 4.01396 | 91.97641 | 36786 ft | 483 kts | 105° |
| 2026-04-30 10:39 | 3.99083 | 92.03955 | 36788 ft | 484 kts | 114° |
| 2026-04-30 10:40 | 3.96095 | 92.10051 | 36787 ft | 484 kts | 117° |
| 2026-04-30 10:40 | 3.93080 | 92.15836 | 36787 ft | 484 kts | 117° |
| 2026-04-30 10:41 | 3.90024 | 92.21864 | 36787 ft | 484 kts | 116° |
| 2026-04-30 10:41 | 3.87013 | 92.27898 | 36787 ft | 484 kts | 116° |
| 2026-04-30 10:42 | 3.84015 | 92.33939 | 36787 ft | 484 kts | 116° |
| 2026-04-30 10:42 | 3.81448 | 92.39127 | 36787 ft | 484 kts | 116° |
| 2026-04-30 10:43 | 3.78436 | 92.45211 | 36787 ft | 484 kts | 116° |
| 2026-04-30 10:43 | 3.75427 | 92.51289 | 36787 ft | 484 kts | 116° |
| 2026-04-30 10:44 | 3.72307 | 92.57591 | 36787 ft | 484 kts | 116° |
| 2026-04-30 10:44 | 3.69309 | 92.63643 | 36787 ft | 484 kts | 116° |
| 2026-04-30 10:45 | 3.66278 | 92.69760 | 36794 ft | 484 kts | 116° |
| 2026-04-30 10:45 | 3.64773 | 92.72800 | 36927 ft | 487 kts | 116° |
| 2026-04-30 10:45 | 3.63268 | 92.75837 | 37291 ft | 486 kts | 116° |
| 2026-04-30 10:46 | 3.61770 | 92.78860 | 37703 ft | 483 kts | 116° |
| 2026-04-30 10:46 | 3.60279 | 92.81868 | 38066 ft | 482 kts | 116° |
| 2026-04-30 10:46 | 3.58800 | 92.84851 | 38344 ft | 483 kts | 116° |
| 2026-04-30 10:46 | 3.57209 | 92.88061 | 38654 ft | 482 kts | 116° |
| 2026-04-30 10:47 | 3.55717 | 92.91071 | 38794 ft | 483 kts | 116° |
| 2026-04-30 10:47 | 3.54219 | 92.94092 | 38788 ft | 483 kts | 116° |
| 2026-04-30 10:47 | 3.51209 | 93.00162 | 38787 ft | 483 kts | 116° |
| 2026-04-30 10:48 | 3.48608 | 93.05405 | 38787 ft | 482 kts | 116° |
| 2026-04-30 10:48 | 3.45601 | 93.11468 | 38787 ft | 482 kts | 116° |
| 2026-04-30 10:49 | 3.42674 | 93.17366 | 38787 ft | 483 kts | 116° |
| 2026-04-30 10:49 | 3.39530 | 93.23702 | 38787 ft | 483 kts | 116° |
| 2026-04-30 10:50 | 3.36538 | 93.29730 | 38787 ft | 483 kts | 116° |
| 2026-04-30 10:50 | 3.33510 | 93.35829 | 38787 ft | 483 kts | 116° |
| 2026-04-30 10:51 | 3.30444 | 93.42005 | 38787 ft | 483 kts | 116° |
| 2026-04-30 10:51 | 3.27453 | 93.48027 | 38787 ft | 483 kts | 116° |
| 2026-04-30 10:52 | 3.24403 | 93.54169 | 38787 ft | 483 kts | 116° |
| 2026-04-30 10:52 | 3.21393 | 93.60226 | 38787 ft | 483 kts | 116° |
| 2026-04-30 10:53 | 3.18905 | 93.65234 | 38787 ft | 483 kts | 116° |
| 2026-04-30 10:53 | 3.15833 | 93.71416 | 38787 ft | 483 kts | 116° |
| 2026-04-30 10:54 | 3.12797 | 93.77523 | 38787 ft | 482 kts | 116° |
| 2026-04-30 10:54 | 3.09794 | 93.83564 | 38787 ft | 481 kts | 116° |
| 2026-04-30 10:55 | 3.06807 | 93.89571 | 38787 ft | 482 kts | 116° |
| 2026-04-30 10:55 | 3.03817 | 93.95583 | 38788 ft | 482 kts | 116° |
| 2026-04-30 10:56 | 3.00719 | 94.01812 | 38788 ft | 482 kts | 116° |
| 2026-04-30 10:56 | 2.97632 | 94.08017 | 38787 ft | 481 kts | 116° |
| 2026-04-30 10:57 | 2.94653 | 94.14004 | 38787 ft | 480 kts | 116° |
| 2026-04-30 10:57 | 2.91634 | 94.20071 | 38787 ft | 480 kts | 116° |
| 2026-04-30 10:58 | 2.88657 | 94.26053 | 38787 ft | 480 kts | 116° |
| 2026-04-30 10:58 | 2.85653 | 94.32086 | 38787 ft | 480 kts | 116° |
| 2026-04-30 10:59 | 2.82670 | 94.38078 | 38787 ft | 480 kts | 116° |
| 2026-04-30 10:59 | 2.80132 | 94.43174 | 38787 ft | 480 kts | 116° |
| 2026-04-30 11:00 | 2.77144 | 94.49173 | 38788 ft | 482 kts | 116° |
| 2026-04-30 11:00 | 2.74147 | 94.55190 | 38787 ft | 483 kts | 116° |
| 2026-04-30 11:01 | 2.71151 | 94.61206 | 38787 ft | 482 kts | 116° |
| 2026-04-30 11:01 | 2.68138 | 94.67252 | 38787 ft | 481 kts | 116° |
| 2026-04-30 11:02 | 2.65146 | 94.73256 | 38788 ft | 482 kts | 116° |
| 2026-04-30 11:02 | 2.61983 | 94.79604 | 38788 ft | 482 kts | 116° |
| 2026-04-30 11:03 | 2.58934 | 94.85720 | 38787 ft | 483 kts | 116° |
| 2026-04-30 11:04 | 2.54436 | 94.94741 | 38787 ft | 482 kts | 116° |
| 2026-04-30 11:04 | 2.51362 | 95.00906 | 38787 ft | 482 kts | 116° |
| 2026-04-30 11:05 | 2.48389 | 95.06867 | 38787 ft | 482 kts | 116° |
| 2026-04-30 11:05 | 2.46019 | 95.11620 | 38787 ft | 482 kts | 116° |
| 2026-04-30 11:06 | 2.42837 | 95.17998 | 38787 ft | 482 kts | 116° |
| 2026-04-30 11:06 | 2.39824 | 95.24038 | 38787 ft | 482 kts | 116° |
| 2026-04-30 11:07 | 2.36746 | 95.30206 | 38787 ft | 482 kts | 116° |
| 2026-04-30 11:07 | 2.33564 | 95.36581 | 38787 ft | 482 kts | 116° |
| 2026-04-30 11:08 | 2.30565 | 95.42591 | 38787 ft | 482 kts | 116° |
| 2026-04-30 11:08 | 2.27571 | 95.48589 | 38787 ft | 482 kts | 116° |
| 2026-04-30 11:09 | 2.24556 | 95.54629 | 38787 ft | 482 kts | 116° |
| 2026-04-30 11:09 | 2.21556 | 95.60637 | 38787 ft | 482 kts | 116° |
| 2026-04-30 11:10 | 2.18981 | 95.65793 | 38787 ft | 482 kts | 116° |
| 2026-04-30 11:10 | 2.15881 | 95.72001 | 38787 ft | 482 kts | 116° |
| 2026-04-30 11:11 | 2.12882 | 95.78005 | 38787 ft | 482 kts | 116° |
| 2026-04-30 11:11 | 2.09761 | 95.84253 | 38787 ft | 482 kts | 116° |
| 2026-04-30 11:12 | 2.06740 | 95.90301 | 38787 ft | 482 kts | 116° |
| 2026-04-30 11:12 | 2.03721 | 95.96343 | 38787 ft | 482 kts | 116° |
| 2026-04-30 11:13 | 2.00662 | 96.02463 | 38787 ft | 482 kts | 116° |
| 2026-04-30 11:13 | 1.97664 | 96.08462 | 38787 ft | 482 kts | 116° |
| 2026-04-30 11:14 | 1.94666 | 96.14462 | 38787 ft | 482 kts | 116° |
| 2026-04-30 11:14 | 1.91667 | 96.20461 | 38787 ft | 482 kts | 116° |
| 2026-04-30 11:15 | 1.88647 | 96.26501 | 38787 ft | 482 kts | 116° |
| 2026-04-30 11:15 | 1.85625 | 96.32547 | 38787 ft | 482 kts | 116° |
| 2026-04-30 11:16 | 1.82626 | 96.38545 | 38787 ft | 482 kts | 116° |
| 2026-04-30 11:16 | 1.80119 | 96.43558 | 38787 ft | 482 kts | 116° |
| 2026-04-30 11:17 | 1.77000 | 96.49794 | 38787 ft | 482 kts | 116° |
| 2026-04-30 11:17 | 1.74003 | 96.55787 | 38787 ft | 482 kts | 116° |
| 2026-04-30 11:18 | 1.70956 | 96.61877 | 38787 ft | 482 kts | 116° |
| 2026-04-30 11:18 | 1.66450 | 96.70885 | 38787 ft | 482 kts | 116° |
| 2026-04-30 11:19 | 1.63373 | 96.77035 | 38787 ft | 482 kts | 116° |
| 2026-04-30 11:19 | 1.60376 | 96.83024 | 38787 ft | 482 kts | 116° |
| 2026-04-30 11:20 | 1.57379 | 96.89015 | 38787 ft | 482 kts | 116° |
| 2026-04-30 11:20 | 1.54358 | 96.95051 | 38787 ft | 482 kts | 116° |
| 2026-04-30 11:21 | 1.51358 | 97.01046 | 38787 ft | 482 kts | 116° |
| 2026-04-30 11:21 | 1.48357 | 97.07040 | 38787 ft | 482 kts | 116° |
| 2026-04-30 11:22 | 1.45356 | 97.13037 | 38787 ft | 482 kts | 116° |
| 2026-04-30 11:22 | 1.42321 | 97.19099 | 38787 ft | 482 kts | 116° |
| 2026-04-30 11:23 | 1.39307 | 97.25118 | 38787 ft | 482 kts | 116° |
| 2026-04-30 11:24 | 1.34807 | 97.34106 | 38791 ft | 485 kts | 115° |
| 2026-04-30 11:24 | 1.31741 | 97.40230 | 38791 ft | 486 kts | 115° |
| 2026-04-30 11:25 | 1.27226 | 97.49250 | 38787 ft | 481 kts | 116° |
| 2026-04-30 11:26 | 1.21295 | 97.61091 | 38816 ft | 485 kts | 115° |
| 2026-04-30 11:26 | 1.18614 | 97.66444 | 38817 ft | 489 kts | 114° |
| 2026-04-30 11:27 | 1.15566 | 97.72591 | 38817 ft | 489 kts | 113° |
| 2026-04-30 11:27 | 1.12849 | 97.78820 | 38817 ft | 488 kts | 110° |
| 2026-04-30 11:28 | 1.08880 | 97.88268 | 38817 ft | 487 kts | 111° |
| 2026-04-30 11:29 | 1.06211 | 97.94509 | 38817 ft | 487 kts | 111° |
| 2026-04-30 11:29 | 1.02023 | 98.04252 | 38816 ft | 484 kts | 111° |
| 2026-04-30 11:30 | 0.98029 | 98.13525 | 38817 ft | 486 kts | 111° |
| 2026-04-30 11:31 | 0.95347 | 98.19751 | 38817 ft | 489 kts | 111° |
| 2026-04-30 11:31 | 0.92661 | 98.25984 | 38816 ft | 486 kts | 112° |
| 2026-04-30 11:32 | 0.89993 | 98.32172 | 38816 ft | 485 kts | 112° |
| 2026-04-30 11:32 | 0.87295 | 98.38432 | 38818 ft | 487 kts | 112° |
| 2026-04-30 11:33 | 0.83294 | 98.47715 | 38812 ft | 482 kts | 112° |
| 2026-04-30 11:33 | 0.81073 | 98.52865 | 38812 ft | 480 kts | 112° |
| 2026-04-30 11:34 | 0.78422 | 98.59012 | 38813 ft | 481 kts | 112° |
| 2026-04-30 11:34 | 0.75594 | 98.65570 | 38813 ft | 482 kts | 112° |
| 2026-04-30 11:35 | 0.72933 | 98.71742 | 38812 ft | 482 kts | 112° |
| 2026-04-30 11:35 | 0.70293 | 98.77864 | 38811 ft | 482 kts | 112° |
| 2026-04-30 11:36 | 0.67575 | 98.84167 | 38810 ft | 482 kts | 112° |
| 2026-04-30 11:36 | 0.64916 | 98.90334 | 38810 ft | 482 kts | 112° |
| 2026-04-30 11:37 | 0.62262 | 98.96487 | 38807 ft | 481 kts | 113° |
| 2026-04-30 11:37 | 0.59575 | 99.02719 | 38808 ft | 481 kts | 112° |
| 2026-04-30 11:38 | 0.56918 | 99.08879 | 38809 ft | 482 kts | 112° |
| 2026-04-30 11:38 | 0.54248 | 99.15067 | 38808 ft | 482 kts | 113° |
| 2026-04-30 11:39 | 0.51591 | 99.21228 | 38800 ft | 482 kts | 112° |
| 2026-04-30 11:39 | 0.48936 | 99.27384 | 38806 ft | 482 kts | 112° |
| 2026-04-30 11:40 | 0.46261 | 99.33586 | 38808 ft | 482 kts | 112° |
| 2026-04-30 11:40 | 0.44053 | 99.38702 | 38804 ft | 482 kts | 112° |
| 2026-04-30 11:41 | 0.41339 | 99.44996 | 38803 ft | 482 kts | 112° |
| 2026-04-30 11:41 | 0.38686 | 99.51146 | 38803 ft | 481 kts | 112° |
| 2026-04-30 11:42 | 0.35947 | 99.57494 | 38803 ft | 481 kts | 112° |
| 2026-04-30 11:42 | 0.33310 | 99.63605 | 38797 ft | 482 kts | 112° |
| 2026-04-30 11:43 | 0.30666 | 99.69735 | 38796 ft | 484 kts | 112° |
| 2026-04-30 11:43 | 0.27979 | 99.75964 | 38796 ft | 484 kts | 112° |
| 2026-04-30 11:44 | 0.25327 | 99.82111 | 38797 ft | 483 kts | 112° |
| 2026-04-30 11:44 | 0.22615 | 99.88398 | 38794 ft | 483 kts | 112° |
| 2026-04-30 11:45 | 0.19950 | 99.94575 | 38794 ft | 483 kts | 112° |
| 2026-04-30 11:45 | 0.17381 | 100.00529 | 38795 ft | 483 kts | 112° |
| 2026-04-30 11:46 | 0.14575 | 100.07034 | 38793 ft | 483 kts | 112° |
| 2026-04-30 11:46 | 0.11923 | 100.13181 | 38793 ft | 479 kts | 112° |
| 2026-04-30 11:47 | 0.09270 | 100.19330 | 38792 ft | 478 kts | 112° |
| 2026-04-30 11:47 | 0.06642 | 100.25418 | 38792 ft | 482 kts | 112° |
| 2026-04-30 11:48 | 0.03982 | 100.31586 | 38792 ft | 484 kts | 112° |
| 2026-04-30 11:48 | 0.01303 | 100.37795 | 38792 ft | 481 kts | 112° |
| 2026-04-30 11:49 | -0.01329 | 100.43896 | 38798 ft | 481 kts | 112° |
| 2026-04-30 11:49 | -0.04026 | 100.50151 | 38796 ft | 479 kts | 113° |
| 2026-04-30 11:50 | -0.06229 | 100.55255 | 38798 ft | 477 kts | 114° |
| 2026-04-30 11:50 | -0.08865 | 100.61363 | 38801 ft | 476 kts | 114° |
| 2026-04-30 11:51 | -0.11515 | 100.67503 | 38800 ft | 477 kts | 114° |
| 2026-04-30 11:51 | -0.14145 | 100.73598 | 38799 ft | 477 kts | 114° |
| 2026-04-30 11:52 | -0.16774 | 100.79693 | 38801 ft | 477 kts | 114° |
| 2026-04-30 11:52 | -0.19404 | 100.85789 | 38802 ft | 477 kts | 114° |
| 2026-04-30 11:53 | -0.22048 | 100.91917 | 38803 ft | 477 kts | 114° |
| 2026-04-30 11:53 | -0.24692 | 100.98044 | 38803 ft | 477 kts | 114° |
| 2026-04-30 11:54 | -0.27317 | 101.04131 | 38804 ft | 477 kts | 114° |
| 2026-04-30 11:54 | -0.29947 | 101.10225 | 38804 ft | 477 kts | 114° |
| 2026-04-30 11:55 | -0.32568 | 101.16301 | 38805 ft | 477 kts | 114° |
| 2026-04-30 11:55 | -0.35212 | 101.22431 | 38805 ft | 477 kts | 114° |
| 2026-04-30 11:56 | -0.37908 | 101.28681 | 38806 ft | 477 kts | 114° |
| 2026-04-30 11:56 | -0.40535 | 101.34770 | 38806 ft | 477 kts | 114° |
| 2026-04-30 11:57 | -0.43166 | 101.40870 | 38805 ft | 476 kts | 114° |
| 2026-04-30 11:57 | -0.45793 | 101.46958 | 38805 ft | 476 kts | 114° |
| 2026-04-30 11:58 | -0.48489 | 101.53210 | 38804 ft | 476 kts | 114° |
| 2026-04-30 11:58 | -0.51112 | 101.59291 | 38803 ft | 476 kts | 114° |
| 2026-04-30 11:59 | -0.53720 | 101.65335 | 38802 ft | 476 kts | 113° |
| 2026-04-30 11:59 | -0.56352 | 101.71440 | 38800 ft | 475 kts | 113° |
| 2026-04-30 12:00 | -0.58969 | 101.77506 | 38791 ft | 475 kts | 112° |
| 2026-04-30 12:00 | -0.61588 | 101.83580 | 38791 ft | 474 kts | 112° |
| 2026-04-30 12:01 | -0.64199 | 101.89636 | 38792 ft | 474 kts | 113° |
| 2026-04-30 12:01 | -0.66829 | 101.95732 | 38793 ft | 474 kts | 113° |
| 2026-04-30 12:02 | -0.69442 | 102.01791 | 38790 ft | 475 kts | 112° |
| 2026-04-30 12:02 | -0.71612 | 102.06824 | 38792 ft | 475 kts | 112° |
| 2026-04-30 12:03 | -0.75537 | 102.15928 | 38791 ft | 474 kts | 112° |
| 2026-04-30 12:04 | -0.78147 | 102.21982 | 38792 ft | 474 kts | 112° |
| 2026-04-30 12:04 | -0.80780 | 102.28088 | 38792 ft | 475 kts | 113° |
| 2026-04-30 12:05 | -0.83394 | 102.34152 | 38791 ft | 474 kts | 112° |
| 2026-04-30 12:05 | -0.86006 | 102.40212 | 38791 ft | 474 kts | 112° |
| 2026-04-30 12:06 | -0.88617 | 102.46268 | 38802 ft | 474 kts | 112° |
| 2026-04-30 12:06 | -0.91244 | 102.52363 | 38807 ft | 476 kts | 113° |
| 2026-04-30 12:07 | -0.93863 | 102.58438 | 38802 ft | 476 kts | 112° |
| 2026-04-30 12:07 | -0.96501 | 102.64558 | 38803 ft | 476 kts | 112° |
| 2026-04-30 12:08 | -0.99208 | 102.70841 | 38809 ft | 476 kts | 112° |
| 2026-04-30 12:08 | -1.01844 | 102.76959 | 38811 ft | 476 kts | 112° |
| 2026-04-30 12:09 | -1.04530 | 102.83195 | 38808 ft | 476 kts | 112° |
| 2026-04-30 12:09 | -1.06955 | 102.89365 | 38816 ft | 475 kts | 105° |
| 2026-04-30 12:10 | -1.07936 | 102.95844 | 38860 ft | 476 kts | 94° |
| 2026-04-30 12:10 | -1.08269 | 103.02751 | 38861 ft | 477 kts | 93° |
| 2026-04-30 12:11 | -1.08551 | 103.08350 | 38861 ft | 477 kts | 94° |
| 2026-04-30 12:11 | -1.08952 | 103.15014 | 38872 ft | 476 kts | 94° |
| 2026-04-30 12:12 | -1.09381 | 103.21674 | 38875 ft | 477 kts | 94° |
| 2026-04-30 12:12 | -1.09824 | 103.28386 | 38874 ft | 478 kts | 94° |
| 2026-04-30 12:13 | -1.10264 | 103.35020 | 38875 ft | 477 kts | 94° |
| 2026-04-30 12:13 | -1.10735 | 103.42087 | 38881 ft | 478 kts | 94° |
| 2026-04-30 12:14 | -1.11176 | 103.48711 | 38882 ft | 478 kts | 94° |
| 2026-04-30 12:14 | -1.11618 | 103.55350 | 38883 ft | 478 kts | 94° |
| 2026-04-30 12:15 | -1.11999 | 103.61082 | 38886 ft | 478 kts | 94° |
| 2026-04-30 12:15 | -1.12440 | 103.67707 | 38888 ft | 478 kts | 94° |
| 2026-04-30 12:16 | -1.12884 | 103.74390 | 38891 ft | 478 kts | 94° |
| 2026-04-30 12:16 | -1.13328 | 103.81064 | 38893 ft | 478 kts | 94° |
| 2026-04-30 12:17 | -1.13993 | 103.91049 | 38901 ft | 477 kts | 94° |
| 2026-04-30 12:17 | -1.14431 | 103.97676 | 38902 ft | 477 kts | 94° |
| 2026-04-30 12:18 | -1.14879 | 104.04410 | 38903 ft | 478 kts | 94° |
| 2026-04-30 12:18 | -1.15316 | 104.10981 | 38915 ft | 478 kts | 94° |
| 2026-04-30 12:19 | -1.15755 | 104.17611 | 38920 ft | 478 kts | 94° |
| 2026-04-30 12:19 | -1.16203 | 104.24365 | 38927 ft | 478 kts | 94° |
| 2026-04-30 12:20 | -1.16644 | 104.31005 | 38930 ft | 478 kts | 94° |
| 2026-04-30 12:20 | -1.17088 | 104.37687 | 38937 ft | 478 kts | 94° |
| 2026-04-30 12:21 | -1.17527 | 104.44322 | 38944 ft | 478 kts | 93° |
| 2026-04-30 12:21 | -1.17965 | 104.50941 | 38947 ft | 478 kts | 93° |
| 2026-04-30 12:22 | -1.18416 | 104.57762 | 38948 ft | 478 kts | 93° |
| 2026-04-30 12:22 | -1.18856 | 104.64395 | 38949 ft | 478 kts | 93° |
| 2026-04-30 12:23 | -1.19297 | 104.71071 | 38956 ft | 478 kts | 93° |
| 2026-04-30 12:23 | -1.19740 | 104.77762 | 38955 ft | 478 kts | 94° |
| 2026-04-30 12:24 | -1.20180 | 104.84424 | 38950 ft | 478 kts | 94° |
| 2026-04-30 12:24 | -1.20557 | 104.90125 | 38954 ft | 478 kts | 94° |
| 2026-04-30 12:25 | -1.20999 | 104.96807 | 38957 ft | 478 kts | 94° |
| 2026-04-30 12:25 | -1.21437 | 105.03447 | 38915 ft | 479 kts | 93° |
| 2026-04-30 12:26 | -1.21877 | 105.10109 | 38889 ft | 480 kts | 93° |
| 2026-04-30 12:26 | -1.22319 | 105.16810 | 38887 ft | 480 kts | 93° |
| 2026-04-30 12:27 | -1.22765 | 105.23560 | 38887 ft | 480 kts | 93° |
| 2026-04-30 12:27 | -1.23199 | 105.30147 | 38876 ft | 481 kts | 93° |
| 2026-04-30 12:28 | -1.23665 | 105.37215 | 38876 ft | 481 kts | 93° |
| 2026-04-30 12:28 | -1.24105 | 105.43897 | 38876 ft | 481 kts | 93° |
| 2026-04-30 12:29 | -1.24546 | 105.50588 | 38973 ft | 484 kts | 93° |
| 2026-04-30 12:29 | -1.24766 | 105.53935 | 39299 ft | 483 kts | 93° |
| 2026-04-30 12:29 | -1.24986 | 105.57274 | 39687 ft | 480 kts | 93° |
| 2026-04-30 12:30 | -1.25206 | 105.60604 | 40046 ft | 479 kts | 93° |
| 2026-04-30 12:30 | -1.25424 | 105.63929 | 40312 ft | 479 kts | 93° |
| 2026-04-30 12:30 | -1.25643 | 105.67257 | 40576 ft | 479 kts | 93° |
| 2026-04-30 12:30 | -1.25870 | 105.70708 | 40841 ft | 479 kts | 93° |
| 2026-04-30 12:31 | -1.26307 | 105.77351 | 40876 ft | 477 kts | 93° |
| 2026-04-30 12:31 | -1.26743 | 105.83973 | 40876 ft | 471 kts | 93° |
| 2026-04-30 12:32 | -1.27173 | 105.90523 | 40875 ft | 466 kts | 93° |
| 2026-04-30 12:32 | -1.27527 | 105.95911 | 40876 ft | 461 kts | 93° |
| 2026-04-30 12:33 | -1.27958 | 106.02472 | 40876 ft | 460 kts | 93° |
| 2026-04-30 12:33 | -1.28398 | 106.09184 | 40876 ft | 461 kts | 93° |
| 2026-04-30 12:34 | -1.28821 | 106.15618 | 40876 ft | 462 kts | 93° |
| 2026-04-30 12:34 | -1.29232 | 106.21892 | 40876 ft | 461 kts | 93° |
| 2026-04-30 12:35 | -1.29666 | 106.28512 | 40876 ft | 461 kts | 93° |
| 2026-04-30 12:35 | -1.30083 | 106.34878 | 40876 ft | 461 kts | 93° |
| 2026-04-30 12:36 | -1.30507 | 106.41348 | 40876 ft | 461 kts | 93° |
| 2026-04-30 12:36 | -1.30926 | 106.47738 | 40876 ft | 460 kts | 93° |
| 2026-04-30 12:37 | -1.31358 | 106.54346 | 40876 ft | 460 kts | 93° |
| 2026-04-30 12:37 | -1.31709 | 106.59698 | 40876 ft | 460 kts | 93° |
| 2026-04-30 12:38 | -1.32126 | 106.66077 | 40876 ft | 460 kts | 93° |
| 2026-04-30 12:38 | -1.32557 | 106.72668 | 40876 ft | 460 kts | 93° |
| 2026-04-30 12:39 | -1.32974 | 106.79043 | 40876 ft | 460 kts | 93° |
| 2026-04-30 12:39 | -1.33391 | 106.85427 | 40876 ft | 460 kts | 93° |
| 2026-04-30 12:40 | -1.33807 | 106.91805 | 40876 ft | 459 kts | 93° |
| 2026-04-30 12:40 | -1.34220 | 106.98126 | 40876 ft | 459 kts | 93° |
| 2026-04-30 12:41 | -1.34669 | 107.05015 | 40876 ft | 459 kts | 93° |
| 2026-04-30 12:41 | -1.35089 | 107.11430 | 40876 ft | 459 kts | 93° |
| 2026-04-30 12:42 | -1.35503 | 107.17785 | 40876 ft | 458 kts | 93° |
| 2026-04-30 12:42 | -1.35920 | 107.24196 | 40876 ft | 458 kts | 93° |
| 2026-04-30 12:43 | -1.36266 | 107.29514 | 40876 ft | 458 kts | 93° |
| 2026-04-30 12:43 | -1.36697 | 107.35959 | 40875 ft | 458 kts | 95° |
| 2026-04-30 12:44 | -1.37780 | 107.42274 | 40876 ft | 458 kts | 102° |
| 2026-04-30 12:44 | -1.39373 | 107.48444 | 40876 ft | 458 kts | 104° |
| 2026-04-30 12:45 | -1.41007 | 107.54652 | 40876 ft | 458 kts | 103° |
| 2026-04-30 12:45 | -1.42561 | 107.60825 | 40876 ft | 458 kts | 103° |
| 2026-04-30 12:46 | -1.44106 | 107.67081 | 40876 ft | 457 kts | 103° |
| 2026-04-30 12:46 | -1.45621 | 107.73251 | 40876 ft | 457 kts | 103° |
| 2026-04-30 12:47 | -1.47097 | 107.79278 | 40876 ft | 457 kts | 103° |
| 2026-04-30 12:47 | -1.48709 | 107.85870 | 40875 ft | 457 kts | 103° |
| 2026-04-30 12:48 | -1.50219 | 107.92050 | 40876 ft | 456 kts | 103° |
| 2026-04-30 12:48 | -1.51734 | 107.98253 | 40876 ft | 457 kts | 103° |
| 2026-04-30 12:49 | -1.53272 | 108.04555 | 40876 ft | 457 kts | 103° |
| 2026-04-30 12:49 | -1.54789 | 108.10766 | 40876 ft | 456 kts | 102° |
| 2026-04-30 12:50 | -1.56302 | 108.16966 | 40876 ft | 454 kts | 102° |
| 2026-04-30 12:50 | -1.57799 | 108.23098 | 40876 ft | 454 kts | 102° |
| 2026-04-30 12:51 | -1.59028 | 108.28135 | 40876 ft | 454 kts | 102° |
| 2026-04-30 12:51 | -1.60576 | 108.34479 | 40876 ft | 454 kts | 102° |
| 2026-04-30 12:52 | -1.62074 | 108.40618 | 40876 ft | 454 kts | 102° |
| 2026-04-30 12:52 | -1.63572 | 108.46759 | 40876 ft | 454 kts | 102° |
| 2026-04-30 12:53 | -1.65068 | 108.52891 | 40876 ft | 454 kts | 102° |
| 2026-04-30 12:53 | -1.66589 | 108.59127 | 40876 ft | 454 kts | 102° |
| 2026-04-30 12:54 | -1.68089 | 108.65277 | 40876 ft | 454 kts | 102° |
| 2026-04-30 12:54 | -1.69583 | 108.71408 | 40876 ft | 454 kts | 102° |
| 2026-04-30 12:55 | -1.71087 | 108.77576 | 40876 ft | 454 kts | 102° |
| 2026-04-30 12:55 | -1.72581 | 108.83706 | 40876 ft | 453 kts | 102° |
| 2026-04-30 12:56 | -1.74083 | 108.89870 | 40876 ft | 453 kts | 102° |
| 2026-04-30 12:56 | -1.75578 | 108.96005 | 40876 ft | 453 kts | 102° |
| 2026-04-30 12:57 | -1.77113 | 109.02306 | 40876 ft | 453 kts | 102° |
| 2026-04-30 12:57 | -1.78605 | 109.08428 | 40876 ft | 453 kts | 102° |
| 2026-04-30 12:58 | -1.80094 | 109.14545 | 40876 ft | 453 kts | 102° |
| 2026-04-30 12:58 | -1.81637 | 109.20880 | 40876 ft | 453 kts | 102° |
| 2026-04-30 12:59 | -1.82957 | 109.26301 | 40876 ft | 453 kts | 102° |
| 2026-04-30 12:59 | -1.84447 | 109.32421 | 40876 ft | 453 kts | 102° |
| 2026-04-30 13:00 | -1.85971 | 109.38681 | 40876 ft | 452 kts | 102° |
| 2026-04-30 13:00 | -1.87526 | 109.45072 | 40876 ft | 453 kts | 102° |
| 2026-04-30 13:01 | -1.89053 | 109.51349 | 40876 ft | 452 kts | 102° |
| 2026-04-30 13:01 | -1.90542 | 109.57469 | 40876 ft | 452 kts | 102° |
| 2026-04-30 13:02 | -1.91798 | 109.62632 | 40876 ft | 452 kts | 102° |
| 2026-04-30 13:02 | -1.93305 | 109.68827 | 40876 ft | 452 kts | 102° |
| 2026-04-30 13:03 | -1.94794 | 109.74953 | 40876 ft | 450 kts | 102° |
| 2026-04-30 13:03 | -1.96304 | 109.81165 | 40876 ft | 449 kts | 103° |
| 2026-04-30 13:04 | -1.97779 | 109.87232 | 40876 ft | 449 kts | 103° |
| 2026-04-30 13:04 | -1.99275 | 109.93386 | 40876 ft | 449 kts | 102° |
| 2026-04-30 13:05 | -2.00762 | 109.99506 | 40876 ft | 450 kts | 102° |
| 2026-04-30 13:06 | -2.02998 | 110.08709 | 40876 ft | 450 kts | 103° |
| 2026-04-30 13:06 | -2.04473 | 110.14781 | 40876 ft | 449 kts | 103° |
| 2026-04-30 13:07 | -2.05957 | 110.20890 | 40877 ft | 450 kts | 102° |
| 2026-04-30 13:07 | -2.07475 | 110.27145 | 40877 ft | 453 kts | 102° |
| 2026-04-30 13:08 | -2.08981 | 110.33348 | 40877 ft | 463 kts | 103° |
| 2026-04-30 13:08 | -2.10521 | 110.39693 | 40878 ft | 469 kts | 102° |
| 2026-04-30 13:09 | -2.11843 | 110.45139 | 40882 ft | 470 kts | 102° |
| 2026-04-30 13:09 | -2.13382 | 110.51483 | 40882 ft | 469 kts | 102° |
| 2026-04-30 13:10 | -2.14908 | 110.57774 | 40882 ft | 468 kts | 102° |
| 2026-04-30 13:10 | -2.16453 | 110.64143 | 40886 ft | 468 kts | 102° |
| 2026-04-30 13:11 | -2.18002 | 110.70525 | 40888 ft | 469 kts | 102° |
| 2026-04-30 13:11 | -2.19550 | 110.76911 | 40887 ft | 469 kts | 102° |
| 2026-04-30 13:12 | -2.21086 | 110.83254 | 40885 ft | 469 kts | 102° |
| 2026-04-30 13:12 | -2.22706 | 110.89939 | 40891 ft | 469 kts | 102° |
| 2026-04-30 13:13 | -2.25110 | 110.99649 | 40891 ft | 470 kts | 104° |
| 2026-04-30 13:14 | -2.27503 | 111.08056 | 40891 ft | 470 kts | 104° |
| 2026-04-30 13:14 | -2.30472 | 111.18577 | 40902 ft | 473 kts | 104° |
| 2026-04-30 13:15 | -2.32889 | 111.27220 | 40900 ft | 474 kts | 104° |
| 2026-04-30 13:16 | -2.34660 | 111.33552 | 40901 ft | 472 kts | 104° |
| 2026-04-30 13:16 | -2.36485 | 111.40084 | 40904 ft | 472 kts | 104° |
| 2026-04-30 13:17 | -2.39132 | 111.49570 | 40903 ft | 474 kts | 104° |
| 2026-04-30 13:18 | -2.41791 | 111.59102 | 40904 ft | 474 kts | 104° |
| 2026-04-30 13:18 | -2.44446 | 111.68625 | 40904 ft | 473 kts | 104° |
| 2026-04-30 13:19 | -2.46251 | 111.75100 | 40904 ft | 473 kts | 104° |
| 2026-04-30 13:19 | -2.48027 | 111.81475 | 40905 ft | 473 kts | 104° |
| 2026-04-30 13:20 | -2.49794 | 111.87814 | 40905 ft | 472 kts | 104° |
| 2026-04-30 13:20 | -2.51566 | 111.94175 | 40905 ft | 472 kts | 104° |
| 2026-04-30 13:21 | -2.53328 | 112.00502 | 40905 ft | 472 kts | 104° |
| 2026-04-30 13:22 | -2.56009 | 112.10128 | 40904 ft | 472 kts | 104° |
| 2026-04-30 13:22 | -2.58650 | 112.19619 | 40904 ft | 472 kts | 104° |
| 2026-04-30 13:23 | -2.61248 | 112.28951 | 40904 ft | 473 kts | 104° |
| 2026-04-30 13:24 | -2.64580 | 112.40929 | 40904 ft | 475 kts | 104° |
| 2026-04-30 13:25 | -2.68282 | 112.54246 | 40902 ft | 479 kts | 104° |
| 2026-04-30 13:26 | -2.72757 | 112.70346 | 40901 ft | 481 kts | 104° |
| 2026-04-30 13:28 | -2.77267 | 112.86581 | 40902 ft | 479 kts | 104° |
| 2026-04-30 13:28 | -2.79936 | 112.96194 | 40901 ft | 480 kts | 104° |
| 2026-04-30 13:29 | -2.83523 | 113.09118 | 40905 ft | 476 kts | 104° |
| 2026-04-30 13:31 | -2.87953 | 113.25091 | 40905 ft | 476 kts | 104° |
| 2026-04-30 13:32 | -2.92086 | 113.39997 | 40905 ft | 477 kts | 104° |
| 2026-04-30 13:33 | -2.95680 | 113.52970 | 40905 ft | 475 kts | 104° |
| 2026-04-30 13:34 | -2.98339 | 113.62567 | 40905 ft | 476 kts | 104° |
| 2026-04-30 13:35 | -3.01916 | 113.75488 | 40905 ft | 478 kts | 104° |
| 2026-04-30 13:36 | -3.05398 | 113.88070 | 40906 ft | 478 kts | 104° |
| 2026-04-30 13:36 | -3.08167 | 113.98080 | 40906 ft | 481 kts | 104° |
| 2026-04-30 13:37 | -3.10853 | 114.07797 | 40905 ft | 476 kts | 104° |
| 2026-04-30 13:38 | -3.13555 | 114.17568 | 40905 ft | 478 kts | 103° |
| 2026-04-30 13:39 | -3.16918 | 114.29745 | 40905 ft | 485 kts | 103° |
| 2026-04-30 13:40 | -3.19607 | 114.39483 | 40905 ft | 482 kts | 103° |
| 2026-04-30 13:40 | -3.21390 | 114.45942 | 40905 ft | 481 kts | 103° |
| 2026-04-30 13:41 | -3.23172 | 114.52401 | 40905 ft | 481 kts | 103° |
| 2026-04-30 13:41 | -3.24967 | 114.58904 | 40905 ft | 482 kts | 103° |
| 2026-04-30 13:42 | -3.26752 | 114.65375 | 40905 ft | 482 kts | 103° |
| 2026-04-30 13:42 | -3.29427 | 114.75078 | 40905 ft | 481 kts | 103° |
| 2026-04-30 13:43 | -3.31208 | 114.81540 | 40905 ft | 482 kts | 103° |
| 2026-04-30 13:43 | -3.32992 | 114.88012 | 40905 ft | 481 kts | 103° |
| 2026-04-30 13:44 | -3.34770 | 114.94468 | 40905 ft | 480 kts | 103° |
| 2026-04-30 13:44 | -3.36544 | 115.00907 | 40905 ft | 478 kts | 103° |
| 2026-04-30 13:45 | -3.39209 | 115.10585 | 40906 ft | 479 kts | 103° |
| 2026-04-30 13:46 | -3.40972 | 115.16994 | 40905 ft | 478 kts | 103° |
| 2026-04-30 13:46 | -3.42798 | 115.23627 | 40905 ft | 478 kts | 103° |
| 2026-04-30 13:47 | -3.44566 | 115.30055 | 40905 ft | 479 kts | 103° |
| 2026-04-30 13:47 | -3.46381 | 115.36654 | 40905 ft | 479 kts | 103° |
| 2026-04-30 13:48 | -3.47864 | 115.42050 | 40905 ft | 479 kts | 103° |
| 2026-04-30 13:48 | -3.49645 | 115.48530 | 40905 ft | 479 kts | 103° |
| 2026-04-30 13:49 | -3.51436 | 115.55048 | 40906 ft | 479 kts | 103° |
| 2026-04-30 13:49 | -3.53262 | 115.61694 | 40905 ft | 479 kts | 103° |
| 2026-04-30 13:50 | -3.55038 | 115.68163 | 40906 ft | 479 kts | 103° |
| 2026-04-30 13:50 | -3.57732 | 115.77978 | 40905 ft | 479 kts | 103° |
| 2026-04-30 13:51 | -3.59500 | 115.84421 | 40906 ft | 480 kts | 103° |
| 2026-04-30 13:51 | -3.61330 | 115.91092 | 40906 ft | 480 kts | 103° |
| 2026-04-30 13:52 | -3.63098 | 115.97539 | 40905 ft | 479 kts | 103° |
| 2026-04-30 13:52 | -3.64860 | 116.03964 | 40905 ft | 479 kts | 103° |
| 2026-04-30 13:53 | -3.66389 | 116.09542 | 40905 ft | 480 kts | 103° |
| 2026-04-30 13:53 | -3.68158 | 116.15999 | 40905 ft | 481 kts | 103° |
| 2026-04-30 13:54 | -3.69926 | 116.22452 | 40905 ft | 481 kts | 103° |
| 2026-04-30 13:54 | -3.71721 | 116.29008 | 40905 ft | 482 kts | 103° |
| 2026-04-30 13:55 | -3.73493 | 116.35482 | 40905 ft | 482 kts | 103° |
| 2026-04-30 13:55 | -3.75279 | 116.42009 | 40905 ft | 482 kts | 103° |
| 2026-04-30 13:56 | -3.77039 | 116.48442 | 40904 ft | 482 kts | 103° |
| 2026-04-30 13:56 | -3.78836 | 116.55012 | 40904 ft | 482 kts | 103° |
| 2026-04-30 13:57 | -3.80597 | 116.61452 | 40904 ft | 482 kts | 103° |
| 2026-04-30 13:57 | -3.82367 | 116.67928 | 40904 ft | 482 kts | 103° |
| 2026-04-30 13:58 | -3.85036 | 116.77699 | 40903 ft | 482 kts | 103° |
| 2026-04-30 13:59 | -3.86776 | 116.84070 | 40903 ft | 482 kts | 103° |
| 2026-04-30 13:59 | -3.88654 | 116.90950 | 40903 ft | 482 kts | 103° |
| 2026-04-30 14:00 | -3.90426 | 116.97432 | 40903 ft | 483 kts | 103° |
| 2026-04-30 14:00 | -3.93103 | 117.07246 | 40903 ft | 485 kts | 103° |
| 2026-04-30 14:01 | -3.94883 | 117.13780 | 40902 ft | 485 kts | 103° |
| 2026-04-30 14:01 | -3.96655 | 117.20284 | 40903 ft | 483 kts | 103° |
| 2026-04-30 14:02 | -3.98901 | 117.26624 | 40904 ft | 486 kts | 115° |
| 2026-04-30 14:02 | -4.01984 | 117.31347 | 40907 ft | 488 kts | 125° |
| 2026-04-30 14:03 | -4.06876 | 117.37684 | 40905 ft | 490 kts | 125° |
| 2026-04-30 14:03 | -4.10958 | 117.43179 | 40906 ft | 492 kts | 124° |
| 2026-04-30 14:04 | -4.14469 | 117.48012 | 40905 ft | 491 kts | 124° |
| 2026-04-30 14:04 | -4.18476 | 117.53550 | 40905 ft | 491 kts | 124° |
| 2026-04-30 14:05 | -4.22463 | 117.59060 | 40905 ft | 490 kts | 124° |
| 2026-04-30 14:05 | -4.26546 | 117.64710 | 40905 ft | 491 kts | 124° |
| 2026-04-30 14:06 | -4.32530 | 117.72995 | 40905 ft | 490 kts | 124° |
| 2026-04-30 14:07 | -4.38553 | 117.81338 | 40904 ft | 490 kts | 124° |
| 2026-04-30 14:08 | -4.44552 | 117.89651 | 40904 ft | 490 kts | 124° |
| 2026-04-30 14:08 | -4.50532 | 117.97940 | 39726 ft | 491 kts | 124° |
| 2026-04-30 14:09 | -4.52555 | 118.00745 | 38992 ft | 491 kts | 124° |
| 2026-04-30 14:09 | -4.54693 | 118.03706 | 38211 ft | 492 kts | 124° |
| 2026-04-30 14:09 | -4.58842 | 118.09460 | 36645 ft | 493 kts | 124° |
| 2026-04-30 14:10 | -4.60855 | 118.12253 | 35877 ft | 494 kts | 125° |
| 2026-04-30 14:10 | -4.62865 | 118.15043 | 35248 ft | 492 kts | 125° |
| 2026-04-30 14:10 | -4.64868 | 118.17822 | 34487 ft | 491 kts | 125° |
| 2026-04-30 14:10 | -4.66222 | 118.19703 | 33746 ft | 498 kts | 125° |
| 2026-04-30 14:11 | -4.68285 | 118.22575 | 33227 ft | 509 kts | 124° |
| 2026-04-30 14:11 | -4.70766 | 118.26606 | 33043 ft | 511 kts | 122° |
| 2026-04-30 14:11 | -4.72099 | 118.28592 | 32707 ft | 507 kts | 126° |
| 2026-04-30 14:11 | -4.74237 | 118.31304 | 31943 ft | 504 kts | 129° |
| 2026-04-30 14:12 | -4.76618 | 118.34097 | 31231 ft | 501 kts | 131° |
| 2026-04-30 14:12 | -4.78926 | 118.36691 | 30644 ft | 496 kts | 132° |
| 2026-04-30 14:12 | -4.81243 | 118.39227 | 30082 ft | 490 kts | 133° |
| 2026-04-30 14:12 | -4.83565 | 118.41716 | 29509 ft | 485 kts | 134° |
| 2026-04-30 14:13 | -4.85865 | 118.44170 | 28846 ft | 482 kts | 133° |
| 2026-04-30 14:13 | -4.88125 | 118.46586 | 28019 ft | 462 kts | 133° |
| 2026-04-30 14:13 | -4.90303 | 118.48911 | 26588 ft | 460 kts | 133° |
| 2026-04-30 14:13 | -4.92477 | 118.51238 | 25295 ft | 455 kts | 132° |
| 2026-04-30 14:14 | -4.94598 | 118.53515 | 24365 ft | 443 kts | 133° |
| 2026-04-30 14:14 | -4.96688 | 118.55753 | 23479 ft | 431 kts | 133° |
| 2026-04-30 14:14 | -4.98715 | 118.57923 | 22878 ft | 428 kts | 133° |
| 2026-04-30 14:14 | -5.00773 | 118.60127 | 22429 ft | 415 kts | 133° |
| 2026-04-30 14:15 | -5.02749 | 118.62244 | 21776 ft | 414 kts | 133° |
| 2026-04-30 14:15 | -5.04661 | 118.64293 | 21224 ft | 410 kts | 133° |
| 2026-04-30 14:15 | -5.06721 | 118.66500 | 20661 ft | 405 kts | 132° |
| 2026-04-30 14:15 | -5.08688 | 118.68604 | 20102 ft | 401 kts | 132° |
| 2026-04-30 14:16 | -5.10551 | 118.70598 | 19355 ft | 386 kts | 132° |
| 2026-04-30 14:16 | -5.12415 | 118.72595 | 18352 ft | 393 kts | 132° |
| 2026-04-30 14:16 | -5.14262 | 118.74575 | 17662 ft | 393 kts | 132° |
| 2026-04-30 14:16 | -5.16146 | 118.76595 | 17085 ft | 390 kts | 132° |
| 2026-04-30 14:17 | -5.17989 | 118.78572 | 16523 ft | 386 kts | 132° |
| 2026-04-30 14:17 | -5.19822 | 118.80537 | 15965 ft | 383 kts | 132° |
| 2026-04-30 14:17 | -5.21613 | 118.82457 | 15420 ft | 379 kts | 132° |
| 2026-04-30 14:17 | -5.23463 | 118.84442 | 14853 ft | 376 kts | 132° |
| 2026-04-30 14:18 | -5.25240 | 118.86348 | 14306 ft | 373 kts | 132° |
| 2026-04-30 14:18 | -5.26908 | 118.88305 | 13767 ft | 367 kts | 125° |
| 2026-04-30 14:18 | -5.28896 | 118.92860 | 13045 ft | 362 kts | 104° |
| 2026-04-30 14:19 | -5.29608 | 118.97961 | 11823 ft | 358 kts | 94° |
| 2026-04-30 14:19 | -5.29692 | 119.00459 | 11492 ft | 357 kts | 91° |
| 2026-04-30 14:19 | -5.29666 | 119.02952 | 10995 ft | 355 kts | 89° |
| 2026-04-30 14:20 | -5.29586 | 119.05410 | 10565 ft | 350 kts | 88° |
| 2026-04-30 14:20 | -5.29508 | 119.07903 | 10137 ft | 345 kts | 89° |
| 2026-04-30 14:20 | -5.29433 | 119.12629 | 9542 ft | 330 kts | 90° |
| 2026-04-30 14:21 | -5.29420 | 119.14890 | 9145 ft | 326 kts | 90° |
| 2026-04-30 14:21 | -5.29409 | 119.17140 | 8750 ft | 311 kts | 90° |
| 2026-04-30 14:21 | -5.29390 | 119.21142 | 7926 ft | 271 kts | 90° |
| 2026-04-30 14:22 | -5.29382 | 119.23041 | 7578 ft | 272 kts | 90° |
| 2026-04-30 14:22 | -5.29368 | 119.26227 | 7032 ft | 273 kts | 90° |
| 2026-04-30 14:22 | -5.29357 | 119.28772 | 6600 ft | 272 kts | 90° |
| 2026-04-30 14:23 | -5.29340 | 119.32534 | 5962 ft | 269 kts | 90° |
| 2026-04-30 14:23 | -5.29326 | 119.35678 | 5431 ft | 269 kts | 90° |
| 2026-04-30 14:24 | -5.29311 | 119.39156 | 4827 ft | 230 kts | 90° |
| 2026-04-30 14:24 | -5.29304 | 119.40707 | 4562 ft | 215 kts | 90° |
| 2026-04-30 14:25 | -5.28527 | 119.43454 | 4078 ft | 209 kts | 44° |
| 2026-04-30 14:25 | -5.25989 | 119.44807 | 3614 ft | 204 kts | 26° |
| 2026-04-30 14:26 | -5.23539 | 119.46090 | 3262 ft | 200 kts | 30° |
| 2026-04-30 14:26 | -5.22241 | 119.46835 | 2966 ft | 198 kts | 30° |
| 2026-04-30 14:26 | -5.19886 | 119.48202 | 2433 ft | 186 kts | 31° |
| 2026-04-30 14:27 | -5.18786 | 119.48842 | 2185 ft | 179 kts | 31° |
| 2026-04-30 14:27 | -5.17735 | 119.49454 | 1949 ft | 170 kts | 31° |
| 2026-04-30 14:27 | -5.16725 | 119.50042 | 1729 ft | 166 kts | 31° |
| 2026-04-30 14:28 | -5.14915 | 119.51095 | 1320 ft | 143 kts | 31° |
| 2026-04-30 14:28 | -5.14062 | 119.51592 | 1136 ft | 141 kts | 31° |
| 2026-04-30 14:28 | -5.13218 | 119.52083 | 956 ft | 141 kts | 31° |
| 2026-04-30 14:28 | -5.12355 | 119.52585 | 767 ft | 140 kts | 31° |
| 2026-04-30 14:29 | -5.10685 | 119.53557 | 398 ft | 140 kts | 30° |
| 2026-04-30 14:29 | -5.09279 | 119.54377 | 91 ft | 137 kts | 31° |
| 2026-04-30 14:30 | -5.07779 | 119.55249 | 61 ft | 11 kts | 28° |
| 2026-04-30 14:31 | -5.07688 | 119.55201 | 61 ft | 4 kts | 302° |
| 2026-04-30 14:31 | -5.07664 | 119.55163 | 61 ft | 3 kts | 302° |
| 2026-04-30 14:31 | -5.07654 | 119.55147 | 61 ft | 3 kts | 302° |
| 2026-04-30 14:32 | -5.07605 | 119.55060 | 61 ft | 14 kts | 299° |
| 2026-04-30 14:32 | -5.07588 | 119.54995 | 61 ft | 6 kts | 257° |
| 2026-04-30 14:32 | -5.07595 | 119.54972 | 61 ft | 0 kts | 253° |
| 2026-04-30 14:33 | -5.07598 | 119.54954 | 61 ft | 6 kts | 269° |
| 2026-04-30 14:33 | -5.07560 | 119.54872 | 61 ft | 0 kts | 300° |